<?xml version='1.0' encoding='UTF-8'?><gpx version="1.1" creator="JPX - https://github.com/jenetics/jpx" xmlns="http://www.topografix.com/GPX/1/1"><trk><trkseg><trkpt lat="45.828096908760614" lon="10.085694406514493"><ele>347.0</ele><time>2026-04-05T07:39:59Z</time></trkpt><trkpt lat="45.82806508975094" lon="10.085610656867"><ele>347.0</ele><time>2026-04-05T07:40:04Z</time></trkpt><trkpt lat="45.8280350777802" lon="10.085529104506184"><ele>347.0</ele><time>2026-04-05T07:40:09Z</time></trkpt><trkpt lat="45.8280271714225" lon="10.085439289442743"><ele>347.0</ele><time>2026-04-05T07:40:13Z</time></trkpt><trkpt lat="45.82801721013475" lon="10.085324623706859"><ele>347.0</ele><time>2026-04-05T07:40:21Z</time></trkpt><trkpt lat="45.82800516505588" lon="10.085228701251486"><ele>347.0</ele><time>2026-04-05T07:40:25.999Z</time></trkpt><trkpt lat="45.82799439027877" lon="10.085133676534538"><ele>347.0</ele><time>2026-04-05T07:40:30.999Z</time></trkpt><trkpt lat="45.82799618746611" lon="10.085030313947374"><ele>347.0</ele><time>2026-04-05T07:40:36.999Z</time></trkpt><trkpt lat="45.82796364726283" lon="10.084941449953755"><ele>347.0</ele><time>2026-04-05T07:40:42.999Z</time></trkpt><trkpt lat="45.82794187541782" lon="10.084850216986052"><ele>347.0</ele><time>2026-04-05T07:40:48.999Z</time></trkpt><trkpt lat="45.827932037003734" lon="10.08476081151159"><ele>347.0</ele><time>2026-04-05T07:40:57.999Z</time></trkpt><trkpt lat="45.82788821009918" lon="10.084688590094014"><ele>347.0</ele><time>2026-04-05T07:41:02.999Z</time></trkpt><trkpt lat="45.827862092886306" lon="10.084598714685875"><ele>347.0</ele><time>2026-04-05T07:41:07.998Z</time></trkpt><trkpt lat="45.82782481950928" lon="10.084511347661614"><ele>347.0</ele><time>2026-04-05T07:41:13.998Z</time></trkpt><trkpt lat="45.82778416345879" lon="10.084434206749672"><ele>347.2857142857143</ele><time>2026-04-05T07:41:19.998Z</time></trkpt><trkpt lat="45.82775484278025" lon="10.084324230014614"><ele>347.57142857142856</ele><time>2026-04-05T07:41:25.998Z</time></trkpt><trkpt lat="45.82771580641483" lon="10.084226799417323"><ele>347.85714285714283</ele><time>2026-04-05T07:41:30.998Z</time></trkpt><trkpt lat="45.82768393843658" lon="10.084145258294257"><ele>348.1428571428571</ele><time>2026-04-05T07:41:34.998Z</time></trkpt><trkpt lat="45.82766330876089" lon="10.084059715689918"><ele>348.42857142857144</ele><time>2026-04-05T07:41:38.998Z</time></trkpt><trkpt lat="45.827653959964024" lon="10.08396253834249"><ele>348.71428571428567</ele><time>2026-04-05T07:41:42.998Z</time></trkpt><trkpt lat="45.82763992474901" lon="10.083858711489103"><ele>349.0</ele><time>2026-04-05T07:41:47.998Z</time></trkpt><trkpt lat="45.82763732795407" lon="10.083758814145314"><ele>347.57142857142856</ele><time>2026-04-05T07:41:53Z</time></trkpt><trkpt lat="45.82760265375947" lon="10.083681711906234"><ele>346.1428571428571</ele><time>2026-04-05T07:42:04Z</time></trkpt><trkpt lat="45.82760158692587" lon="10.083589316583762"><ele>344.71428571428567</ele><time>2026-04-05T07:42:08Z</time></trkpt><trkpt lat="45.82760254533961" lon="10.083466209472963"><ele>343.2857142857143</ele><time>2026-04-05T07:42:12Z</time></trkpt><trkpt lat="45.82759211339536" lon="10.083373485086282"><ele>341.8571428571429</ele><time>2026-04-05T07:42:16Z</time></trkpt><trkpt lat="45.82757422174521" lon="10.083281054166138"><ele>340.4285714285714</ele><time>2026-04-05T07:42:21Z</time></trkpt><trkpt lat="45.82754420385499" lon="10.083181003106288"><ele>339.0</ele><time>2026-04-05T07:42:26.999Z</time></trkpt><trkpt lat="45.827513277767956" lon="10.083097950693242"><ele>339.0</ele><time>2026-04-05T07:42:31.999Z</time></trkpt><trkpt lat="45.82748319563838" lon="10.08299682294958"><ele>339.0</ele><time>2026-04-05T07:42:38.999Z</time></trkpt><trkpt lat="45.82746920814657" lon="10.082890244208087"><ele>339.0</ele><time>2026-04-05T07:42:43.999Z</time></trkpt><trkpt lat="45.82740349479634" lon="10.082830403279173"><ele>339.0</ele><time>2026-04-05T07:42:49.999Z</time></trkpt><trkpt lat="45.82738449841387" lon="10.082738122497847"><ele>339.0</ele><time>2026-04-05T07:42:54.999Z</time></trkpt><trkpt lat="45.82738700416327" lon="10.08264180755711"><ele>339.0</ele><time>2026-04-05T07:42:59.999Z</time></trkpt><trkpt lat="45.82734488297042" lon="10.082550126291638"><ele>339.0</ele><time>2026-04-05T07:43:04.999Z</time></trkpt><trkpt lat="45.827342240277055" lon="10.082436413509033"><ele>341.5</ele><time>2026-04-05T07:43:11.999Z</time></trkpt><trkpt lat="45.827344297535255" lon="10.082330256046987"><ele>344.0</ele><time>2026-04-05T07:43:19.998Z</time></trkpt><trkpt lat="45.82733053926585" lon="10.082232265189417"><ele>346.5</ele><time>2026-04-05T07:43:23.998Z</time></trkpt><trkpt lat="45.82739481415354" lon="10.082201529999066"><ele>349.0</ele><time>2026-04-05T07:43:30.998Z</time></trkpt><trkpt lat="45.82744781696208" lon="10.082146827145463"><ele>351.5</ele><time>2026-04-05T07:43:35.998Z</time></trkpt><trkpt lat="45.82739756114669" lon="10.082085166789083"><ele>354.0</ele><time>2026-04-05T07:43:37.998Z</time></trkpt><trkpt lat="45.82711638355348" lon="10.082255167290946"><ele>354.0</ele><time>2026-04-05T07:43:38.998Z</time></trkpt><trkpt lat="45.82705329158476" lon="10.082337866482131"><ele>354.0</ele><time>2026-04-05T07:43:39.998Z</time></trkpt><trkpt lat="45.826991623432896" lon="10.082379249373597"><ele>354.0</ele><time>2026-04-05T07:43:45.998Z</time></trkpt><trkpt lat="45.82694252064622" lon="10.082322417835384"><ele>354.0</ele><time>2026-04-05T07:43:53.998Z</time></trkpt><trkpt lat="45.82691270054297" lon="10.082240263132974"><ele>354.0</ele><time>2026-04-05T07:43:58Z</time></trkpt><trkpt lat="45.82687700700543" lon="10.082164094630441"><ele>354.0</ele><time>2026-04-05T07:44:03Z</time></trkpt><trkpt lat="45.826918047697475" lon="10.082068002890844"><ele>354.0</ele><time>2026-04-05T07:44:12Z</time></trkpt><trkpt lat="45.82692883218354" lon="10.081970217619002"><ele>354.0</ele><time>2026-04-05T07:44:21Z</time></trkpt><trkpt lat="45.82690783459629" lon="10.081873363994317"><ele>354.0</ele><time>2026-04-05T07:44:28Z</time></trkpt><trkpt lat="45.82685786868539" lon="10.081815919311893"><ele>354.0</ele><time>2026-04-05T07:44:31Z</time></trkpt><trkpt lat="45.82681567601983" lon="10.081732092272768"><ele>354.0</ele><time>2026-04-05T07:44:33.999Z</time></trkpt><trkpt lat="45.82676496846335" lon="10.081652415578533"><ele>354.0</ele><time>2026-04-05T07:44:37.999Z</time></trkpt><trkpt lat="45.82668643551454" lon="10.081602763116592"><ele>354.0</ele><time>2026-04-05T07:44:41.999Z</time></trkpt><trkpt lat="45.82663336563149" lon="10.081515182922692"><ele>354.0</ele><time>2026-04-05T07:44:44.999Z</time></trkpt><trkpt lat="45.826584447700654" lon="10.081440055887454"><ele>352.2857142857143</ele><time>2026-04-05T07:44:48.999Z</time></trkpt><trkpt lat="45.82656441971223" lon="10.081334205362088"><ele>350.57142857142856</ele><time>2026-04-05T07:44:53.999Z</time></trkpt><trkpt lat="45.82652067937079" lon="10.08125886270309"><ele>348.85714285714283</ele><time>2026-04-05T07:44:56.999Z</time></trkpt><trkpt lat="45.826468797330676" lon="10.081200082169316"><ele>347.1428571428571</ele><time>2026-04-05T07:44:59.999Z</time></trkpt><trkpt lat="45.82641888671297" lon="10.081135250646552"><ele>345.42857142857144</ele><time>2026-04-05T07:45:05.999Z</time></trkpt><trkpt lat="45.8263774274368" lon="10.081059778209134"><ele>343.71428571428567</ele><time>2026-04-05T07:45:10.999Z</time></trkpt><trkpt lat="45.826330037341535" lon="10.08099070686127"><ele>342.0</ele><time>2026-04-05T07:45:15.999Z</time></trkpt><trkpt lat="45.826289931385965" lon="10.080902891653219"><ele>341.99999999999994</ele><time>2026-04-05T07:45:20.998Z</time></trkpt><trkpt lat="45.82624006478049" lon="10.080835706659892"><ele>342.0</ele><time>2026-04-05T07:45:25.998Z</time></trkpt><trkpt lat="45.82617622758749" lon="10.080837076665379"><ele>342.0</ele><time>2026-04-05T07:45:31.998Z</time></trkpt><trkpt lat="45.826111419720206" lon="10.080789322615434"><ele>342.0</ele><time>2026-04-05T07:45:36.998Z</time></trkpt><trkpt lat="45.82605602502378" lon="10.08071326157312"><ele>342.0</ele><time>2026-04-05T07:45:41.998Z</time></trkpt><trkpt lat="45.82601226684613" lon="10.080634595940012"><ele>341.99999999999994</ele><time>2026-04-05T07:45:45.998Z</time></trkpt><trkpt lat="45.82597477460559" lon="10.080545827324205"><ele>342.0</ele><time>2026-04-05T07:45:49.998Z</time></trkpt><trkpt lat="45.82593860860396" lon="10.080455801218893"><ele>342.1428571428571</ele><time>2026-04-05T07:45:53.998Z</time></trkpt><trkpt lat="45.825911537139866" lon="10.080369088932745"><ele>342.2857142857143</ele><time>2026-04-05T07:45:58.998Z</time></trkpt><trkpt lat="45.82584899572099" lon="10.080308273849257"><ele>342.42857142857144</ele><time>2026-04-05T07:46:07Z</time></trkpt><trkpt lat="45.825822215888" lon="10.080206502315725"><ele>342.57142857142856</ele><time>2026-04-05T07:46:13Z</time></trkpt><trkpt lat="45.825782244853336" lon="10.080127178872644"><ele>342.7142857142857</ele><time>2026-04-05T07:46:18Z</time></trkpt><trkpt lat="45.8257297135092" lon="10.080051350323775"><ele>342.85714285714283</ele><time>2026-04-05T07:46:24Z</time></trkpt><trkpt lat="45.82567302989463" lon="10.079986433136"><ele>343.0</ele><time>2026-04-05T07:46:30Z</time></trkpt><trkpt lat="45.825617807795545" lon="10.079922142893318"><ele>346.0</ele><time>2026-04-05T07:46:36Z</time></trkpt><trkpt lat="45.825571756572295" lon="10.07984282951461"><ele>349.0</ele><time>2026-04-05T07:46:41.999Z</time></trkpt><trkpt lat="45.82552297477009" lon="10.079765584437915"><ele>352.0</ele><time>2026-04-05T07:46:48.999Z</time></trkpt><trkpt lat="45.8254912170562" lon="10.079676016584049"><ele>355.0</ele><time>2026-04-05T07:46:54.999Z</time></trkpt><trkpt lat="45.82546460701961" lon="10.079585305941587"><ele>358.0</ele><time>2026-04-05T07:47:00.999Z</time></trkpt><trkpt lat="45.82543023594713" lon="10.079494789663642"><ele>361.0</ele><time>2026-04-05T07:47:07.999Z</time></trkpt><trkpt lat="45.825416913027354" lon="10.079390069819171"><ele>364.0</ele><time>2026-04-05T07:47:13.999Z</time></trkpt><trkpt lat="45.82539096009578" lon="10.079303188776958"><ele>364.0</ele><time>2026-04-05T07:47:19.999Z</time></trkpt><trkpt lat="45.825344028394504" lon="10.079231751507743"><ele>364.0</ele><time>2026-04-05T07:47:27.998Z</time></trkpt><trkpt lat="45.82529464742384" lon="10.079162332733118"><ele>364.0</ele><time>2026-04-05T07:47:34.998Z</time></trkpt><trkpt lat="45.82526231071666" lon="10.079077223845362"><ele>364.0</ele><time>2026-04-05T07:47:40.998Z</time></trkpt><trkpt lat="45.825234254273724" lon="10.07899392845923"><ele>364.0</ele><time>2026-04-05T07:47:45.998Z</time></trkpt><trkpt lat="45.82523640646821" lon="10.078899554777172"><ele>364.0</ele><time>2026-04-05T07:47:50.998Z</time></trkpt><trkpt lat="45.82523711033443" lon="10.078801790819474"><ele>364.0</ele><time>2026-04-05T07:47:56.998Z</time></trkpt><trkpt lat="45.82524624407449" lon="10.07870575310916"><ele>364.2857142857143</ele><time>2026-04-05T07:48:02.998Z</time></trkpt><trkpt lat="45.82525474914903" lon="10.078598248491742"><ele>364.57142857142856</ele><time>2026-04-05T07:48:09Z</time></trkpt><trkpt lat="45.825279374767085" lon="10.078512892139798"><ele>364.8571428571429</ele><time>2026-04-05T07:48:14Z</time></trkpt><trkpt lat="45.82530353509511" lon="10.078406491823333"><ele>365.1428571428571</ele><time>2026-04-05T07:48:20Z</time></trkpt><trkpt lat="45.82534185343108" lon="10.078311095500696"><ele>365.42857142857144</ele><time>2026-04-05T07:48:25Z</time></trkpt><trkpt lat="45.82538000775582" lon="10.078233974990823"><ele>365.7142857142857</ele><time>2026-04-05T07:48:31Z</time></trkpt><trkpt lat="45.825441842860585" lon="10.07820201357909"><ele>366.0</ele><time>2026-04-05T07:48:38Z</time></trkpt><trkpt lat="45.82545496144978" lon="10.078103280609563"><ele>366.42857142857144</ele><time>2026-04-05T07:48:51.999Z</time></trkpt><trkpt lat="45.82543888322411" lon="10.078014657250508"><ele>366.8571428571429</ele><time>2026-04-05T07:48:58.999Z</time></trkpt><trkpt lat="45.825401840659275" lon="10.077936269669744"><ele>367.2857142857143</ele><time>2026-04-05T07:49:05.999Z</time></trkpt><trkpt lat="45.82535100540175" lon="10.077879527003846"><ele>367.7142857142857</ele><time>2026-04-05T07:49:12.999Z</time></trkpt><trkpt lat="45.825297958517346" lon="10.077794864724464"><ele>368.1428571428571</ele><time>2026-04-05T07:49:19.999Z</time></trkpt><trkpt lat="45.825230800399" lon="10.0777643842934"><ele>368.57142857142856</ele><time>2026-04-05T07:49:24.999Z</time></trkpt><trkpt lat="45.82522188148941" lon="10.077674339452491"><ele>369.0</ele><time>2026-04-05T07:49:28.998Z</time></trkpt><trkpt lat="45.825254812306305" lon="10.077581311948432"><ele>369.0</ele><time>2026-04-05T07:49:33.998Z</time></trkpt><trkpt lat="45.82529118655005" lon="10.077502615970353"><ele>369.0</ele><time>2026-04-05T07:49:38.998Z</time></trkpt><trkpt lat="45.8253444396885" lon="10.077435634563177"><ele>369.0</ele><time>2026-04-05T07:49:44.998Z</time></trkpt><trkpt lat="45.82539858959607" lon="10.077373895328007"><ele>369.0</ele><time>2026-04-05T07:49:50.998Z</time></trkpt><trkpt lat="45.82545775496568" lon="10.077325996994814"><ele>369.0</ele><time>2026-04-05T07:49:56.998Z</time></trkpt><trkpt lat="45.825523291153125" lon="10.077274110683092"><ele>369.0</ele><time>2026-04-05T07:50:03.998Z</time></trkpt><trkpt lat="45.825579846367994" lon="10.077222187261338"><ele>369.0</ele><time>2026-04-05T07:50:09.998Z</time></trkpt><trkpt lat="45.825635411860446" lon="10.077151804101009"><ele>370.0</ele><time>2026-04-05T07:50:17Z</time></trkpt><trkpt lat="45.82567882543352" lon="10.077077547634136"><ele>371.0</ele><time>2026-04-05T07:50:23Z</time></trkpt><trkpt lat="45.82571107572272" lon="10.076992386422573"><ele>372.0</ele><time>2026-04-05T07:50:29Z</time></trkpt><trkpt lat="45.82572453234817" lon="10.076903265535801"><ele>373.0</ele><time>2026-04-05T07:50:36Z</time></trkpt><trkpt lat="45.8257308039554" lon="10.076810729196577"><ele>374.0</ele><time>2026-04-05T07:50:41Z</time></trkpt><trkpt lat="45.82575916917856" lon="10.076719548321773"><ele>375.0</ele><time>2026-04-05T07:50:46Z</time></trkpt><trkpt lat="45.825797293152156" lon="10.076634758825763"><ele>376.0</ele><time>2026-04-05T07:50:50.999Z</time></trkpt><trkpt lat="45.82581573510444" lon="10.076548095096394"><ele>377.2857142857143</ele><time>2026-04-05T07:50:55.999Z</time></trkpt><trkpt lat="45.82583323610208" lon="10.076452931550492"><ele>378.57142857142856</ele><time>2026-04-05T07:51:02.999Z</time></trkpt><trkpt lat="45.82585796505708" lon="10.07636020341689"><ele>379.8571428571429</ele><time>2026-04-05T07:51:10.999Z</time></trkpt><trkpt lat="45.82588050594902" lon="10.076260068285764"><ele>381.1428571428571</ele><time>2026-04-05T07:51:14.999Z</time></trkpt><trkpt lat="45.82591080443396" lon="10.076162057891896"><ele>382.42857142857144</ele><time>2026-04-05T07:51:49.998Z</time></trkpt><trkpt lat="45.82591107621711" lon="10.076064378107743"><ele>383.7142857142857</ele><time>2026-04-05T07:51:55.998Z</time></trkpt><trkpt lat="45.82589929214177" lon="10.075970058933962"><ele>385.0</ele><time>2026-04-05T07:52:01.998Z</time></trkpt><trkpt lat="45.82588096234861" lon="10.075878898420278"><ele>385.0</ele><time>2026-04-05T07:52:06.998Z</time></trkpt><trkpt lat="45.82586135181859" lon="10.075789825356576"><ele>385.0</ele><time>2026-04-05T07:52:11.998Z</time></trkpt><trkpt lat="45.825833989501675" lon="10.075694682276161"><ele>385.0</ele><time>2026-04-05T07:52:17.998Z</time></trkpt><trkpt lat="45.825824687208026" lon="10.075605003524531"><ele>385.0</ele><time>2026-04-05T07:52:24Z</time></trkpt><trkpt lat="45.82579806125548" lon="10.07550839295657"><ele>385.0</ele><time>2026-04-05T07:52:31Z</time></trkpt><trkpt lat="45.82577872151147" lon="10.07541391716569"><ele>385.0</ele><time>2026-04-05T07:52:37Z</time></trkpt><trkpt lat="45.82575193272189" lon="10.075325390145384"><ele>385.0</ele><time>2026-04-05T07:52:43Z</time></trkpt><trkpt lat="45.82574194506932" lon="10.075229799551865"><ele>386.7142857142857</ele><time>2026-04-05T07:52:49Z</time></trkpt><trkpt lat="45.8257295544814" lon="10.075122523362522"><ele>388.42857142857144</ele><time>2026-04-05T07:52:54.999Z</time></trkpt><trkpt lat="45.82572056514047" lon="10.075029692184167"><ele>390.1428571428571</ele><time>2026-04-05T07:53:00.999Z</time></trkpt><trkpt lat="45.825733723461276" lon="10.074932671798916"><ele>391.8571428571429</ele><time>2026-04-05T07:53:06.999Z</time></trkpt><trkpt lat="45.82575230827349" lon="10.074841781324732"><ele>393.57142857142856</ele><time>2026-04-05T07:53:12.999Z</time></trkpt><trkpt lat="45.82577320830538" lon="10.074750053400976"><ele>395.2857142857143</ele><time>2026-04-05T07:53:18.999Z</time></trkpt><trkpt lat="45.825740995314675" lon="10.074667588444274"><ele>397.0</ele><time>2026-04-05T07:53:25.999Z</time></trkpt><trkpt lat="45.825697695394524" lon="10.07457967613757"><ele>398.7142857142857</ele><time>2026-04-05T07:53:31.999Z</time></trkpt><trkpt lat="45.825685800040134" lon="10.074486448354365"><ele>400.42857142857144</ele><time>2026-04-05T07:53:36.999Z</time></trkpt><trkpt lat="45.82564570831963" lon="10.074414721889895"><ele>402.1428571428571</ele><time>2026-04-05T07:53:44.998Z</time></trkpt><trkpt lat="45.82558849801331" lon="10.074369352834857"><ele>403.8571428571429</ele><time>2026-04-05T07:53:49.998Z</time></trkpt><trkpt lat="45.825543825269676" lon="10.074299731184198"><ele>405.5714285714286</ele><time>2026-04-05T07:53:54.998Z</time></trkpt><trkpt lat="45.8255071817933" lon="10.074214612111373"><ele>407.2857142857143</ele><time>2026-04-05T07:54:00.998Z</time></trkpt><trkpt lat="45.82547630313463" lon="10.074135070572847"><ele>409.0</ele><time>2026-04-05T07:54:05.998Z</time></trkpt><trkpt lat="45.82544654857389" lon="10.07404389707462"><ele>411.4285714285714</ele><time>2026-04-05T07:54:11.998Z</time></trkpt><trkpt lat="45.82541836705848" lon="10.073958380230659"><ele>413.8571428571429</ele><time>2026-04-05T07:54:17.998Z</time></trkpt><trkpt lat="45.82541422567574" lon="10.073868031862709"><ele>416.2857142857143</ele><time>2026-04-05T07:54:22.998Z</time></trkpt><trkpt lat="45.825383583054126" lon="10.073779002732696"><ele>418.71428571428567</ele><time>2026-04-05T07:54:31Z</time></trkpt><trkpt lat="45.825353810160784" lon="10.07369935651564"><ele>421.1428571428571</ele><time>2026-04-05T07:54:37Z</time></trkpt><trkpt lat="45.825326957915756" lon="10.073613789246709"><ele>423.57142857142856</ele><time>2026-04-05T07:54:44Z</time></trkpt><trkpt lat="45.82531791411622" lon="10.073508980037623"><ele>426.0</ele><time>2026-04-05T07:54:50Z</time></trkpt><trkpt lat="45.82529542982753" lon="10.073422113013086"><ele>425.99999999999994</ele><time>2026-04-05T07:54:55Z</time></trkpt><trkpt lat="45.82527105227883" lon="10.073331235294052"><ele>426.0</ele><time>2026-04-05T07:55:00.999Z</time></trkpt><trkpt lat="45.82524530293061" lon="10.073232094864762"><ele>426.0</ele><time>2026-04-05T07:55:05.999Z</time></trkpt><trkpt lat="45.82522423147721" lon="10.073130538697745"><ele>426.0</ele><time>2026-04-05T07:55:11.999Z</time></trkpt><trkpt lat="45.825213171337644" lon="10.073030324862039"><ele>426.0</ele><time>2026-04-05T07:55:16.999Z</time></trkpt><trkpt lat="45.825215219659455" lon="10.072937198560759"><ele>425.99999999999994</ele><time>2026-04-05T07:55:21.999Z</time></trkpt><trkpt lat="45.825222279119565" lon="10.072839498292645"><ele>426.0</ele><time>2026-04-05T07:55:27.999Z</time></trkpt><trkpt lat="45.825226786870275" lon="10.072738498515566"><ele>426.57142857142856</ele><time>2026-04-05T07:55:33.999Z</time></trkpt><trkpt lat="45.825251823895854" lon="10.072651344314346"><ele>427.1428571428571</ele><time>2026-04-05T07:55:38.999Z</time></trkpt><trkpt lat="45.825289757859196" lon="10.072577033334495"><ele>427.71428571428567</ele><time>2026-04-05T07:55:43.999Z</time></trkpt><trkpt lat="45.825326251145675" lon="10.072487476400932"><ele>428.2857142857143</ele><time>2026-04-05T07:55:48.998Z</time></trkpt><trkpt lat="45.82536478628136" lon="10.072403528182367"><ele>428.8571428571429</ele><time>2026-04-05T07:55:53.998Z</time></trkpt><trkpt lat="45.82540286679732" lon="10.072311362701262"><ele>429.4285714285714</ele><time>2026-04-05T07:55:58.998Z</time></trkpt><trkpt lat="45.82540331477272" lon="10.072214593512005"><ele>430.0</ele><time>2026-04-05T07:56:03.998Z</time></trkpt><trkpt lat="45.82536147168135" lon="10.072134511613884"><ele>430.57142857142856</ele><time>2026-04-05T07:56:08.998Z</time></trkpt><trkpt lat="45.825290225327926" lon="10.072103149480403"><ele>431.14285714285717</ele><time>2026-04-05T07:56:14.998Z</time></trkpt><trkpt lat="45.825225958340695" lon="10.07205941133815"><ele>431.7142857142857</ele><time>2026-04-05T07:56:19.998Z</time></trkpt><trkpt lat="45.82516080809483" lon="10.072029407070396"><ele>432.2857142857143</ele><time>2026-04-05T07:56:25.998Z</time></trkpt><trkpt lat="45.825090822939615" lon="10.071991382395254"><ele>432.8571428571429</ele><time>2026-04-05T07:56:32Z</time></trkpt><trkpt lat="45.82503557687275" lon="10.071941850563888"><ele>433.42857142857144</ele><time>2026-04-05T07:56:37Z</time></trkpt><trkpt lat="45.824975519209616" lon="10.07191008413443"><ele>434.0</ele><time>2026-04-05T07:56:43Z</time></trkpt><trkpt lat="45.82493324355638" lon="10.071836958191865"><ele>432.42857142857144</ele><time>2026-04-05T07:56:48Z</time></trkpt><trkpt lat="45.82487913268352" lon="10.071787049583518"><ele>430.8571428571429</ele><time>2026-04-05T07:56:53Z</time></trkpt><trkpt lat="45.82483501361784" lon="10.071718442969404"><ele>429.2857142857143</ele><time>2026-04-05T07:56:58Z</time></trkpt><trkpt lat="45.82479403186724" lon="10.07164566121761"><ele>427.7142857142857</ele><time>2026-04-05T07:57:03Z</time></trkpt><trkpt lat="45.82475051562529" lon="10.071574609859445"><ele>426.14285714285717</ele><time>2026-04-05T07:57:08.999Z</time></trkpt><trkpt lat="45.824742417069686" lon="10.071482509674407"><ele>424.57142857142856</ele><time>2026-04-05T07:57:15.999Z</time></trkpt><trkpt lat="45.82476297720439" lon="10.071387940519907"><ele>423.0</ele><time>2026-04-05T07:57:21.999Z</time></trkpt><trkpt lat="45.824776172773376" lon="10.071299153544839"><ele>423.0</ele><time>2026-04-05T07:57:27.999Z</time></trkpt><trkpt lat="45.824807911825744" lon="10.071204902238602"><ele>423.0</ele><time>2026-04-05T07:57:33.999Z</time></trkpt><trkpt lat="45.82484115122438" lon="10.071123928919018"><ele>423.0</ele><time>2026-04-05T07:57:38.999Z</time></trkpt><trkpt lat="45.82486459957577" lon="10.07103438683213"><ele>423.0</ele><time>2026-04-05T07:57:43.999Z</time></trkpt><trkpt lat="45.82489998562906" lon="10.070956325642918"><ele>423.0</ele><time>2026-04-05T07:57:48.999Z</time></trkpt><trkpt lat="45.824914545757686" lon="10.070854354999259"><ele>423.0</ele><time>2026-04-05T07:57:53.998Z</time></trkpt><trkpt lat="45.82493607972192" lon="10.07076184139601"><ele>423.0</ele><time>2026-04-05T07:57:58.998Z</time></trkpt><trkpt lat="45.824940899914246" lon="10.070655905105419"><ele>424.1428571428571</ele><time>2026-04-05T07:58:04.998Z</time></trkpt><trkpt lat="45.824906208029724" lon="10.07056028857755"><ele>425.28571428571433</ele><time>2026-04-05T07:58:10.998Z</time></trkpt><trkpt lat="45.82483499361492" lon="10.070564810970355"><ele>426.42857142857144</ele><time>2026-04-05T07:58:16.998Z</time></trkpt><trkpt lat="45.82477446055095" lon="10.070608369432508"><ele>427.57142857142856</ele><time>2026-04-05T07:58:23.998Z</time></trkpt><trkpt lat="45.82471078329878" lon="10.070614178323467"><ele>428.71428571428567</ele><time>2026-04-05T07:58:28.998Z</time></trkpt><trkpt lat="45.8246444981454" lon="10.070577224744284"><ele>429.8571428571429</ele><time>2026-04-05T07:58:34.998Z</time></trkpt><trkpt lat="45.824581443324746" lon="10.070538127527174"><ele>431.0</ele><time>2026-04-05T07:58:40Z</time></trkpt><trkpt lat="45.8245303033086" lon="10.070482320327445"><ele>431.0</ele><time>2026-04-05T07:58:45Z</time></trkpt><trkpt lat="45.82448453374237" lon="10.070405399284743"><ele>431.0</ele><time>2026-04-05T07:58:51Z</time></trkpt><trkpt lat="45.8244432894587" lon="10.07033213094101"><ele>431.0</ele><time>2026-04-05T07:58:56Z</time></trkpt><trkpt lat="45.82439228721852" lon="10.070275512185516"><ele>431.0</ele><time>2026-04-05T07:59:01Z</time></trkpt><trkpt lat="45.8243341689044" lon="10.070236674578481"><ele>431.0</ele><time>2026-04-05T07:59:06Z</time></trkpt><trkpt lat="45.82426967489468" lon="10.070225499625353"><ele>431.0</ele><time>2026-04-05T07:59:11Z</time></trkpt><trkpt lat="45.824198580486126" lon="10.070214288061603"><ele>431.0</ele><time>2026-04-05T07:59:16.999Z</time></trkpt><trkpt lat="45.8241262026366" lon="10.070218893005917"><ele>429.5714285714286</ele><time>2026-04-05T07:59:22.999Z</time></trkpt><trkpt lat="45.82406265704256" lon="10.07020441278461"><ele>428.1428571428571</ele><time>2026-04-05T07:59:27.999Z</time></trkpt><trkpt lat="45.82399109860351" lon="10.070201878410177"><ele>426.7142857142857</ele><time>2026-04-05T07:59:34.999Z</time></trkpt><trkpt lat="45.82392296689846" lon="10.070177674308106"><ele>425.28571428571433</ele><time>2026-04-05T07:59:40.999Z</time></trkpt><trkpt lat="45.82385317873687" lon="10.070153570723361"><ele>423.8571428571429</ele><time>2026-04-05T07:59:46.999Z</time></trkpt><trkpt lat="45.823802035887745" lon="10.070098351914721"><ele>422.42857142857144</ele><time>2026-04-05T07:59:51.999Z</time></trkpt><trkpt lat="45.82374877534358" lon="10.070039930495787"><ele>421.0</ele><time>2026-04-05T07:59:57.999Z</time></trkpt><trkpt lat="45.823693832941366" lon="10.069983143761581"><ele>422.42857142857144</ele><time>2026-04-05T08:00:02.998Z</time></trkpt><trkpt lat="45.823648447428525" lon="10.069919789731303"><ele>423.8571428571429</ele><time>2026-04-05T08:00:08.998Z</time></trkpt><trkpt lat="45.823599376744994" lon="10.069854631513389"><ele>425.28571428571433</ele><time>2026-04-05T08:00:15.998Z</time></trkpt><trkpt lat="45.823551029318246" lon="10.069791679115635"><ele>426.7142857142857</ele><time>2026-04-05T08:00:20.998Z</time></trkpt><trkpt lat="45.82351414955852" lon="10.069696035487613"><ele>428.1428571428571</ele><time>2026-04-05T08:00:25.998Z</time></trkpt><trkpt lat="45.82346464628826" lon="10.069624954535518"><ele>429.5714285714286</ele><time>2026-04-05T08:00:32.998Z</time></trkpt><trkpt lat="45.82345381033969" lon="10.06952815524303"><ele>431.0</ele><time>2026-04-05T08:00:38.998Z</time></trkpt><trkpt lat="45.82347014808242" lon="10.069423673851007"><ele>431.0</ele><time>2026-04-05T08:00:44Z</time></trkpt><trkpt lat="45.82345701056571" lon="10.069319339969228"><ele>431.0</ele><time>2026-04-05T08:00:52Z</time></trkpt><trkpt lat="45.82345811359526" lon="10.069220253645929"><ele>431.0</ele><time>2026-04-05T08:01:00Z</time></trkpt><trkpt lat="45.82340301690931" lon="10.069149345883336"><ele>431.0</ele><time>2026-04-05T08:01:05Z</time></trkpt><trkpt lat="45.82335176810148" lon="10.069093136615376"><ele>431.0</ele><time>2026-04-05T08:01:09Z</time></trkpt><trkpt lat="45.82329250903161" lon="10.069047040519488"><ele>431.0</ele><time>2026-04-05T08:01:15Z</time></trkpt><trkpt lat="45.82324714440333" lon="10.068977583223987"><ele>431.0</ele><time>2026-04-05T08:01:20.999Z</time></trkpt><trkpt lat="45.823221142905425" lon="10.068891459990914"><ele>433.0</ele><time>2026-04-05T08:01:27.999Z</time></trkpt><trkpt lat="45.82316961174057" lon="10.068804581906319"><ele>435.0</ele><time>2026-04-05T08:01:32.999Z</time></trkpt><trkpt lat="45.823132949085114" lon="10.068711428845306"><ele>437.0</ele><time>2026-04-05T08:01:38.999Z</time></trkpt><trkpt lat="45.823096976212454" lon="10.06861238518261"><ele>439.0</ele><time>2026-04-05T08:01:44.999Z</time></trkpt><trkpt lat="45.823087969174324" lon="10.068518655037517"><ele>441.0</ele><time>2026-04-05T08:01:50.999Z</time></trkpt><trkpt lat="45.82306859710835" lon="10.068427884495247"><ele>443.0</ele><time>2026-04-05T08:01:55.999Z</time></trkpt><trkpt lat="45.823059319697094" lon="10.068332993119835"><ele>445.0</ele><time>2026-04-05T08:02:01.999Z</time></trkpt><trkpt lat="45.823058378749614" lon="10.068236008857575"><ele>447.14285714285717</ele><time>2026-04-05T08:02:06.998Z</time></trkpt><trkpt lat="45.82304908518094" lon="10.06813403440967"><ele>449.2857142857142</ele><time>2026-04-05T08:02:12.998Z</time></trkpt><trkpt lat="45.82304137874091" lon="10.068041652200316"><ele>451.4285714285714</ele><time>2026-04-05T08:02:19.998Z</time></trkpt><trkpt lat="45.82304577587191" lon="10.067944616367694"><ele>453.57142857142856</ele><time>2026-04-05T08:02:24.998Z</time></trkpt><trkpt lat="45.82304039785886" lon="10.067836798535096"><ele>455.71428571428567</ele><time>2026-04-05T08:02:30.998Z</time></trkpt><trkpt lat="45.823041069303784" lon="10.067736178481344"><ele>457.8571428571428</ele><time>2026-04-05T08:02:35.998Z</time></trkpt><trkpt lat="45.8230367947403" lon="10.067631331377324"><ele>459.99999999999994</ele><time>2026-04-05T08:02:41.998Z</time></trkpt><trkpt lat="45.82301867188579" lon="10.067522504105654"><ele>465.2857142857142</ele><time>2026-04-05T08:02:47.998Z</time></trkpt><trkpt lat="45.82299767298584" lon="10.067411511068212"><ele>470.57142857142856</ele><time>2026-04-05T08:02:54Z</time></trkpt><trkpt lat="45.82296561865636" lon="10.067323386135325"><ele>475.85714285714283</ele><time>2026-04-05T08:02:59Z</time></trkpt><trkpt lat="45.822945422896055" lon="10.06723738713842"><ele>481.1428571428571</ele><time>2026-04-05T08:03:06Z</time></trkpt><trkpt lat="45.822909840993105" lon="10.067161949057121"><ele>486.42857142857144</ele><time>2026-04-05T08:03:12Z</time></trkpt><trkpt lat="45.82286613597712" lon="10.06708925681079"><ele>491.7142857142857</ele><time>2026-04-05T08:03:19Z</time></trkpt><trkpt lat="45.822811787609275" lon="10.06703255670265"><ele>497.0</ele><time>2026-04-05T08:03:24.999Z</time></trkpt><trkpt lat="45.82275386111943" lon="10.066978199128993"><ele>497.0</ele><time>2026-04-05T08:03:31.999Z</time></trkpt><trkpt lat="45.82268754110038" lon="10.066935497242637"><ele>497.0</ele><time>2026-04-05T08:03:38.999Z</time></trkpt><trkpt lat="45.82262337304273" lon="10.066901392329113"><ele>497.0</ele><time>2026-04-05T08:03:45.999Z</time></trkpt><trkpt lat="45.82255073984891" lon="10.06688009145907"><ele>497.0</ele><time>2026-04-05T08:03:52.999Z</time></trkpt><trkpt lat="45.82249548543068" lon="10.066830716730374"><ele>497.0</ele><time>2026-04-05T08:03:58.999Z</time></trkpt><trkpt lat="45.822434766889955" lon="10.066779556616257"><ele>497.0</ele><time>2026-04-05T08:04:04.999Z</time></trkpt><trkpt lat="45.82237710296206" lon="10.066720823102717"><ele>497.0</ele><time>2026-04-05T08:04:12.998Z</time></trkpt><trkpt lat="45.82230933791103" lon="10.066682413563283"><ele>499.1428571428571</ele><time>2026-04-05T08:04:19.998Z</time></trkpt><trkpt lat="45.82224916534775" lon="10.066635018543735"><ele>501.2857142857143</ele><time>2026-04-05T08:04:26.998Z</time></trkpt><trkpt lat="45.82218746719709" lon="10.066600102658732"><ele>503.42857142857144</ele><time>2026-04-05T08:04:31.998Z</time></trkpt><trkpt lat="45.82211806751676" lon="10.06656399411495"><ele>505.57142857142856</ele><time>2026-04-05T08:04:37.998Z</time></trkpt><trkpt lat="45.82204859168483" lon="10.066518187775552"><ele>507.71428571428567</ele><time>2026-04-05T08:04:43.998Z</time></trkpt><trkpt lat="45.821983178665754" lon="10.066478046473197"><ele>509.85714285714283</ele><time>2026-04-05T08:04:49.998Z</time></trkpt><trkpt lat="45.82191014606881" lon="10.066435018908207"><ele>512.0</ele><time>2026-04-05T08:04:56Z</time></trkpt><trkpt lat="45.82184970843489" lon="10.066398867009202"><ele>506.85714285714283</ele><time>2026-04-05T08:05:02Z</time></trkpt><trkpt lat="45.821800194989486" lon="10.066342184858001"><ele>501.71428571428567</ele><time>2026-04-05T08:05:08Z</time></trkpt><trkpt lat="45.821736690590214" lon="10.066323197647787"><ele>496.57142857142856</ele><time>2026-04-05T08:05:13Z</time></trkpt><trkpt lat="45.821669529622966" lon="10.066263177511736"><ele>491.42857142857144</ele><time>2026-04-05T08:05:19Z</time></trkpt><trkpt lat="45.82161468219234" lon="10.066203325496765"><ele>486.2857142857143</ele><time>2026-04-05T08:05:24Z</time></trkpt><trkpt lat="45.82156057691581" lon="10.066143737776258"><ele>481.1428571428571</ele><time>2026-04-05T08:05:30.999Z</time></trkpt><trkpt lat="45.82152503534434" lon="10.066065288848733"><ele>476.0</ele><time>2026-04-05T08:05:37.999Z</time></trkpt><trkpt lat="45.82152700798208" lon="10.065973448407208"><ele>476.0</ele><time>2026-04-05T08:05:44.999Z</time></trkpt><trkpt lat="45.82152327707776" lon="10.065875683030644"><ele>476.0</ele><time>2026-04-05T08:05:55.999Z</time></trkpt><trkpt lat="45.82153690256343" lon="10.065778210829754"><ele>476.0</ele><time>2026-04-05T08:06:03.999Z</time></trkpt><trkpt lat="45.82153735832702" lon="10.065684961336025"><ele>476.0</ele><time>2026-04-05T08:06:12.999Z</time></trkpt><trkpt lat="45.82147751968153" lon="10.065637993070268"><ele>476.0</ele><time>2026-04-05T08:06:24.998Z</time></trkpt><trkpt lat="45.82141367554424" lon="10.065673741336587"><ele>476.0</ele><time>2026-04-05T08:06:32.998Z</time></trkpt><trkpt lat="45.82135134260271" lon="10.06564373580078"><ele>476.0</ele><time>2026-04-05T08:06:39.998Z</time></trkpt><trkpt lat="45.82129346879025" lon="10.06560268037332"><ele>481.0</ele><time>2026-04-05T08:06:46.998Z</time></trkpt><trkpt lat="45.82126325783011" lon="10.06550649077273"><ele>486.0</ele><time>2026-04-05T08:06:53.998Z</time></trkpt><trkpt lat="45.821232161128975" lon="10.06542538905398"><ele>491.0</ele><time>2026-04-05T08:07:02Z</time></trkpt><trkpt lat="45.82122689998598" lon="10.065317364292573"><ele>496.0</ele><time>2026-04-05T08:07:11Z</time></trkpt><trkpt lat="45.82122466956926" lon="10.065225560367695"><ele>501.0</ele><time>2026-04-05T08:07:20Z</time></trkpt><trkpt lat="45.821234543598564" lon="10.065132557829681"><ele>506.0</ele><time>2026-04-05T08:07:32Z</time></trkpt><trkpt lat="45.821179854394856" lon="10.065064426649972"><ele>511.0</ele><time>2026-04-05T08:07:41.999Z</time></trkpt><trkpt lat="45.82116082409196" lon="10.0649781530791"><ele>511.7142857142857</ele><time>2026-04-05T08:07:48.999Z</time></trkpt><trkpt lat="45.82113045094813" lon="10.06488645030574"><ele>512.4285714285714</ele><time>2026-04-05T08:07:56.999Z</time></trkpt><trkpt lat="45.82109188778559" lon="10.064808552180283"><ele>513.1428571428571</ele><time>2026-04-05T08:08:03.999Z</time></trkpt><trkpt lat="45.821048414439346" lon="10.064737341991373"><ele>513.8571428571429</ele><time>2026-04-05T08:08:12.999Z</time></trkpt><trkpt lat="45.82102014011215" lon="10.064642084509455"><ele>514.5714285714286</ele><time>2026-04-05T08:08:19.999Z</time></trkpt><trkpt lat="45.820978920044325" lon="10.064571329598316"><ele>515.2857142857142</ele><time>2026-04-05T08:08:27.998Z</time></trkpt><trkpt lat="45.82091759130261" lon="10.064535989881442"><ele>516.0</ele><time>2026-04-05T08:08:35.998Z</time></trkpt><trkpt lat="45.82085334908609" lon="10.06447957337083"><ele>515.9999999999999</ele><time>2026-04-05T08:08:41.998Z</time></trkpt><trkpt lat="45.82080102103562" lon="10.064427036503494"><ele>516.0</ele><time>2026-04-05T08:08:46.998Z</time></trkpt><trkpt lat="45.82074982325981" lon="10.064366367215388"><ele>516.0</ele><time>2026-04-05T08:08:51.998Z</time></trkpt><trkpt lat="45.82070121588568" lon="10.064299485917484"><ele>516.0</ele><time>2026-04-05T08:08:58.998Z</time></trkpt><trkpt lat="45.820648267062836" lon="10.06423079586495"><ele>516.0</ele><time>2026-04-05T08:09:04.998Z</time></trkpt><trkpt lat="45.820604292213126" lon="10.064161017591324"><ele>515.9999999999999</ele><time>2026-04-05T08:09:11Z</time></trkpt><trkpt lat="45.82054533953143" lon="10.064116294675044"><ele>516.0</ele><time>2026-04-05T08:09:16Z</time></trkpt><trkpt lat="45.820490543196655" lon="10.064043517094841"><ele>520.7142857142857</ele><time>2026-04-05T08:09:22Z</time></trkpt><trkpt lat="45.82044879430088" lon="10.06396735856853"><ele>525.4285714285714</ele><time>2026-04-05T08:09:27Z</time></trkpt><trkpt lat="45.82038820171127" lon="10.063914156640541"><ele>530.1428571428571</ele><time>2026-04-05T08:09:33Z</time></trkpt><trkpt lat="45.82033100603728" lon="10.063864447924075"><ele>534.8571428571429</ele><time>2026-04-05T08:09:38Z</time></trkpt><trkpt lat="45.82028858103885" lon="10.063794720424376"><ele>539.5714285714286</ele><time>2026-04-05T08:09:42.999Z</time></trkpt><trkpt lat="45.82023871524727" lon="10.063706363043268"><ele>544.2857142857142</ele><time>2026-04-05T08:09:48.999Z</time></trkpt><trkpt lat="45.820191576541006" lon="10.063641539663513"><ele>549.0</ele><time>2026-04-05T08:09:55.999Z</time></trkpt><trkpt lat="45.82015677983425" lon="10.063566120654153"><ele>545.8571428571429</ele><time>2026-04-05T08:09:59.999Z</time></trkpt><trkpt lat="45.82010544123852" lon="10.06350878942428"><ele>542.7142857142858</ele><time>2026-04-05T08:10:05.999Z</time></trkpt><trkpt lat="45.82007713094398" lon="10.063427120002395"><ele>539.5714285714287</ele><time>2026-04-05T08:10:12.999Z</time></trkpt><trkpt lat="45.82004253160892" lon="10.063349957542993"><ele>536.4285714285714</ele><time>2026-04-05T08:10:17.999Z</time></trkpt><trkpt lat="45.82000013258169" lon="10.063281695706342"><ele>533.2857142857143</ele><time>2026-04-05T08:10:25.999Z</time></trkpt><trkpt lat="45.81993333379724" lon="10.063287031555117"><ele>530.1428571428572</ele><time>2026-04-05T08:10:31.998Z</time></trkpt><trkpt lat="45.81986263562928" lon="10.063304698272919"><ele>527.0</ele><time>2026-04-05T08:10:38.998Z</time></trkpt><trkpt lat="45.81979096334561" lon="10.063292282983447"><ele>531.5714285714287</ele><time>2026-04-05T08:10:45.998Z</time></trkpt><trkpt lat="45.81972458503537" lon="10.063277035289742"><ele>536.1428571428571</ele><time>2026-04-05T08:10:51.998Z</time></trkpt><trkpt lat="45.819662562944565" lon="10.063232945548709"><ele>540.7142857142858</ele><time>2026-04-05T08:10:59.998Z</time></trkpt><trkpt lat="45.81959896468877" lon="10.063179323704155"><ele>545.2857142857143</ele><time>2026-04-05T08:11:09.998Z</time></trkpt><trkpt lat="45.81953657636562" lon="10.063144850062912"><ele>549.8571428571429</ele><time>2026-04-05T08:11:16Z</time></trkpt><trkpt lat="45.819476870981944" lon="10.063089074489724"><ele>554.4285714285714</ele><time>2026-04-05T08:11:23Z</time></trkpt><trkpt lat="45.81942086775879" lon="10.063046628296707"><ele>559.0</ele><time>2026-04-05T08:11:30Z</time></trkpt><trkpt lat="45.81937208813666" lon="10.062979459957521"><ele>557.8571428571429</ele><time>2026-04-05T08:11:36Z</time></trkpt><trkpt lat="45.81931582418555" lon="10.062934037851672"><ele>556.7142857142858</ele><time>2026-04-05T08:11:43Z</time></trkpt><trkpt lat="45.81925390122848" lon="10.062861416689037"><ele>555.5714285714286</ele><time>2026-04-05T08:11:49.999Z</time></trkpt><trkpt lat="45.81918908910669" lon="10.062813909526513"><ele>554.4285714285714</ele><time>2026-04-05T08:11:56.999Z</time></trkpt><trkpt lat="45.81912478940532" lon="10.06276626620202"><ele>553.2857142857142</ele><time>2026-04-05T08:12:05.999Z</time></trkpt><trkpt lat="45.8190612729594" lon="10.062724212289195"><ele>552.1428571428571</ele><time>2026-04-05T08:12:11.999Z</time></trkpt><trkpt lat="45.81900954686909" lon="10.062667860752068"><ele>551.0</ele><time>2026-04-05T08:12:18.999Z</time></trkpt><trkpt lat="45.81894879819517" lon="10.062613388588247"><ele>550.9999999999999</ele><time>2026-04-05T08:12:25.999Z</time></trkpt><trkpt lat="45.81888796939848" lon="10.062552444494345"><ele>551.0</ele><time>2026-04-05T08:12:32.999Z</time></trkpt><trkpt lat="45.8188326657074" lon="10.062492964019944"><ele>551.0</ele><time>2026-04-05T08:12:39.998Z</time></trkpt><trkpt lat="45.818779750241276" lon="10.062426458418287"><ele>551.0</ele><time>2026-04-05T08:12:46.998Z</time></trkpt><trkpt lat="45.818728589530835" lon="10.062358843840256"><ele>551.0</ele><time>2026-04-05T08:12:54.998Z</time></trkpt><trkpt lat="45.818702570122035" lon="10.062271992074624"><ele>550.9999999999999</ele><time>2026-04-05T08:13:00.998Z</time></trkpt><trkpt lat="45.81872924529774" lon="10.062180783017984"><ele>551.0</ele><time>2026-04-05T08:13:08.998Z</time></trkpt><trkpt lat="45.81875722595529" lon="10.062097595290911"><ele>552.8333333333333</ele><time>2026-04-05T08:13:16.998Z</time></trkpt><trkpt lat="45.81878559495764" lon="10.062009449090562"><ele>554.6666666666666</ele><time>2026-04-05T08:13:24Z</time></trkpt><trkpt lat="45.818840033988046" lon="10.061934151685545"><ele>556.5</ele><time>2026-04-05T08:13:30Z</time></trkpt><trkpt lat="45.81889189451644" lon="10.061875111315354"><ele>558.3333333333334</ele><time>2026-04-05T08:13:36Z</time></trkpt><trkpt lat="45.81891796710232" lon="10.06178000940248"><ele>560.1666666666667</ele><time>2026-04-05T08:13:43Z</time></trkpt><trkpt lat="45.81900233165351" lon="10.06169680826823"><ele>562.0</ele><time>2026-04-05T08:14:28.999Z</time></trkpt><trkpt lat="45.81902592601256" lon="10.061606194743806"><ele>562.2857142857143</ele><time>2026-04-05T08:14:33.999Z</time></trkpt><trkpt lat="45.81907773498735" lon="10.061529099813207"><ele>562.5714285714286</ele><time>2026-04-05T08:14:39.999Z</time></trkpt><trkpt lat="45.819127143770906" lon="10.06145471735513"><ele>562.8571428571429</ele><time>2026-04-05T08:14:46.998Z</time></trkpt><trkpt lat="45.81918907505721" lon="10.061416831550865"><ele>563.1428571428571</ele><time>2026-04-05T08:14:53.998Z</time></trkpt><trkpt lat="45.81924651696908" lon="10.061374431857317"><ele>563.4285714285714</ele><time>2026-04-05T08:14:59.998Z</time></trkpt><trkpt lat="45.81930865479835" lon="10.06131158668805"><ele>563.7142857142858</ele><time>2026-04-05T08:15:05.998Z</time></trkpt><trkpt lat="45.81936043982157" lon="10.06124418619516"><ele>564.0</ele><time>2026-04-05T08:15:10.998Z</time></trkpt><trkpt lat="45.81941686025436" lon="10.0611923290051"><ele>566.5714285714286</ele><time>2026-04-05T08:15:15.998Z</time></trkpt><trkpt lat="45.819462791281" lon="10.061126448864629"><ele>569.1428571428571</ele><time>2026-04-05T08:15:20.998Z</time></trkpt><trkpt lat="45.81952741061171" lon="10.061079457954879"><ele>571.7142857142857</ele><time>2026-04-05T08:15:26.999Z</time></trkpt><trkpt lat="45.81958979724133" lon="10.06104020065625"><ele>574.2857142857142</ele><time>2026-04-05T08:15:32.999Z</time></trkpt><trkpt lat="45.81965106965347" lon="10.060998994609418"><ele>576.8571428571428</ele><time>2026-04-05T08:15:42Z</time></trkpt><trkpt lat="45.819716873428064" lon="10.060959140807407"><ele>579.4285714285714</ele><time>2026-04-05T08:15:47.999Z</time></trkpt><trkpt lat="45.81978309216755" lon="10.06094506510083"><ele>582.0</ele><time>2026-04-05T08:15:56.999Z</time></trkpt><trkpt lat="45.81984500483896" lon="10.060897438205563"><ele>582.0</ele><time>2026-04-05T08:16:03.999Z</time></trkpt><trkpt lat="45.81990607100685" lon="10.060925711450205"><ele>582.0</ele><time>2026-04-05T08:16:14.999Z</time></trkpt><trkpt lat="45.819953447746734" lon="10.060987940233357"><ele>582.0</ele><time>2026-04-05T08:16:22.999Z</time></trkpt><trkpt lat="45.81999131585078" lon="10.06106086265149"><ele>582.0</ele><time>2026-04-05T08:16:28.999Z</time></trkpt><trkpt lat="45.82001023389265" lon="10.061158326913823"><ele>582.0</ele><time>2026-04-05T08:16:35.999Z</time></trkpt><trkpt lat="45.82003127578755" lon="10.061245850377528"><ele>582.0</ele><time>2026-04-05T08:16:41.999Z</time></trkpt><trkpt lat="45.82006634116053" lon="10.061334480906389"><ele>582.0</ele><time>2026-04-05T08:16:47.998Z</time></trkpt><trkpt lat="45.82010526413339" lon="10.061414089538053"><ele>584.1428571428571</ele><time>2026-04-05T08:16:53.998Z</time></trkpt><trkpt lat="45.820158327810105" lon="10.061474792182562"><ele>586.2857142857142</ele><time>2026-04-05T08:17:00.998Z</time></trkpt><trkpt lat="45.82020380820183" lon="10.061543151634224"><ele>588.4285714285714</ele><time>2026-04-05T08:17:09.998Z</time></trkpt><trkpt lat="45.82025765576168" lon="10.061594590393808"><ele>590.5714285714286</ele><time>2026-04-05T08:17:15.998Z</time></trkpt><trkpt lat="45.820319310598784" lon="10.061633054457841"><ele>592.7142857142858</ele><time>2026-04-05T08:17:22.998Z</time></trkpt><trkpt lat="45.820383937976686" lon="10.061668090980465"><ele>594.8571428571429</ele><time>2026-04-05T08:17:31Z</time></trkpt><trkpt lat="45.820454392853726" lon="10.061685689270842"><ele>597.0</ele><time>2026-04-05T08:17:38Z</time></trkpt><trkpt lat="45.82052019606759" lon="10.061712455539867"><ele>597.0000000000001</ele><time>2026-04-05T08:17:46Z</time></trkpt><trkpt lat="45.82058465986837" lon="10.061730012488518"><ele>597.0</ele><time>2026-04-05T08:17:53Z</time></trkpt><trkpt lat="45.82063593587794" lon="10.061785496475759"><ele>597.0</ele><time>2026-04-05T08:18:02Z</time></trkpt><trkpt lat="45.82069591193467" lon="10.06183229539414"><ele>597.0</ele><time>2026-04-05T08:18:08.999Z</time></trkpt><trkpt lat="45.820753784186614" lon="10.061873325281155"><ele>597.0</ele><time>2026-04-05T08:18:15.999Z</time></trkpt><trkpt lat="45.82081146438015" lon="10.061917677380574"><ele>597.0000000000001</ele><time>2026-04-05T08:18:23.999Z</time></trkpt><trkpt lat="45.820878701002115" lon="10.06194852509562"><ele>597.0</ele><time>2026-04-05T08:18:29.999Z</time></trkpt><trkpt lat="45.82094411210856" lon="10.061973131747532"><ele>601.1428571428572</ele><time>2026-04-05T08:18:37.999Z</time></trkpt><trkpt lat="45.82100754397441" lon="10.062004467177868"><ele>605.2857142857143</ele><time>2026-04-05T08:18:42.999Z</time></trkpt><trkpt lat="45.821071854695475" lon="10.062019786445003"><ele>609.4285714285714</ele><time>2026-04-05T08:18:49.999Z</time></trkpt><trkpt lat="45.82114550610795" lon="10.062020498118683"><ele>613.5714285714287</ele><time>2026-04-05T08:19:00.999Z</time></trkpt><trkpt lat="45.82120964046274" lon="10.06205521686717"><ele>617.7142857142858</ele><time>2026-04-05T08:19:07.998Z</time></trkpt><trkpt lat="45.821275802934736" lon="10.062072140252011"><ele>621.8571428571429</ele><time>2026-04-05T08:19:14.998Z</time></trkpt><trkpt lat="45.82133224369707" lon="10.062114514291558"><ele>626.0</ele><time>2026-04-05T08:19:23.998Z</time></trkpt><trkpt lat="45.821395759986885" lon="10.06215166078185"><ele>626.0</ele><time>2026-04-05T08:19:29.998Z</time></trkpt><trkpt lat="45.82146458416969" lon="10.06220084374206"><ele>626.0</ele><time>2026-04-05T08:19:38Z</time></trkpt><trkpt lat="45.82153351054714" lon="10.062216577364989"><ele>626.0</ele><time>2026-04-05T08:19:44Z</time></trkpt><trkpt lat="45.821600835741" lon="10.062240196199616"><ele>626.0</ele><time>2026-04-05T08:19:51Z</time></trkpt><trkpt lat="45.82166213976238" lon="10.062261796116328"><ele>626.0</ele><time>2026-04-05T08:19:57Z</time></trkpt><trkpt lat="45.82173548310178" lon="10.062246098421344"><ele>626.0</ele><time>2026-04-05T08:20:05Z</time></trkpt><trkpt lat="45.821798368695255" lon="10.06222748062369"><ele>626.0</ele><time>2026-04-05T08:20:11Z</time></trkpt><trkpt lat="45.821861939747215" lon="10.062250376830658"><ele>626.0</ele><time>2026-04-05T08:20:21.999Z</time></trkpt><trkpt lat="45.821911653906824" lon="10.062326565462342"><ele>626.0</ele><time>2026-04-05T08:20:30.999Z</time></trkpt><trkpt lat="45.8219640315628" lon="10.062376777671773"><ele>626.0</ele><time>2026-04-05T08:20:34.999Z</time></trkpt><trkpt lat="45.82202213881319" lon="10.062430481465567"><ele>626.0</ele><time>2026-04-05T08:20:38.999Z</time></trkpt><trkpt lat="45.82207827490993" lon="10.062489722841029"><ele>626.0</ele><time>2026-04-05T08:20:43.999Z</time></trkpt><trkpt lat="45.822091324375826" lon="10.062581271358324"><ele>626.0</ele><time>2026-04-05T08:20:49.999Z</time></trkpt><trkpt lat="45.82209764580501" lon="10.062680133255613"><ele>626.0</ele><time>2026-04-05T08:20:56.999Z</time></trkpt><trkpt lat="45.82214433139463" lon="10.06276399459268"><ele>626.0</ele><time>2026-04-05T08:21:00.999Z</time></trkpt><trkpt lat="45.822200488597026" lon="10.062830451947871"><ele>626.0</ele><time>2026-04-05T08:21:04.999Z</time></trkpt><trkpt lat="45.822244740909234" lon="10.062897932328603"><ele>626.0</ele><time>2026-04-05T08:21:08.999Z</time></trkpt><trkpt lat="45.822259298437864" lon="10.062986693661923"><ele>626.0</ele><time>2026-04-05T08:21:13.998Z</time></trkpt><trkpt lat="45.8222953044174" lon="10.063064265672407"><ele>626.0</ele><time>2026-04-05T08:21:18.998Z</time></trkpt><trkpt lat="45.822333502897656" lon="10.063145297340826"><ele>626.0</ele><time>2026-04-05T08:21:22.998Z</time></trkpt><trkpt lat="45.822382794990155" lon="10.063203879207926"><ele>626.0</ele><time>2026-04-05T08:21:27.998Z</time></trkpt><trkpt lat="45.822419299255806" lon="10.063289017882024"><ele>624.8571428571429</ele><time>2026-04-05T08:21:34.998Z</time></trkpt><trkpt lat="45.822470313218616" lon="10.063350822867392"><ele>623.7142857142858</ele><time>2026-04-05T08:21:40.998Z</time></trkpt><trkpt lat="45.82251250767858" lon="10.063427661289076"><ele>622.5714285714287</ele><time>2026-04-05T08:21:48Z</time></trkpt><trkpt lat="45.82256878213619" lon="10.063474072037344"><ele>621.4285714285714</ele><time>2026-04-05T08:21:52Z</time></trkpt><trkpt lat="45.82263527785757" lon="10.06350817510946"><ele>620.2857142857143</ele><time>2026-04-05T08:22:02Z</time></trkpt><trkpt lat="45.8227067233162" lon="10.063554968651017"><ele>619.1428571428572</ele><time>2026-04-05T08:22:10Z</time></trkpt><trkpt lat="45.82278106272467" lon="10.063539734366275"><ele>618.0</ele><time>2026-04-05T08:22:15Z</time></trkpt><trkpt lat="45.82284516798846" lon="10.063499047102813"><ele>618.0000000000001</ele><time>2026-04-05T08:22:19Z</time></trkpt><trkpt lat="45.82290970212344" lon="10.063457440737068"><ele>618.0</ele><time>2026-04-05T08:22:24Z</time></trkpt><trkpt lat="45.82297098245733" lon="10.06343115055258"><ele>618.0</ele><time>2026-04-05T08:22:29.999Z</time></trkpt><trkpt lat="45.82302714136145" lon="10.063488966758978"><ele>618.0</ele><time>2026-04-05T08:22:41.999Z</time></trkpt><trkpt lat="45.823086089094154" lon="10.063521516775747"><ele>618.0</ele><time>2026-04-05T08:22:47.999Z</time></trkpt><trkpt lat="45.8231151799852" lon="10.063608217080668"><ele>618.0000000000001</ele><time>2026-04-05T08:22:54.999Z</time></trkpt><trkpt lat="45.82314879512253" lon="10.063695421877528"><ele>618.0</ele><time>2026-04-05T08:22:58.999Z</time></trkpt><trkpt lat="45.823193756791525" lon="10.06377291369444"><ele>618.0000000000001</ele><time>2026-04-05T08:23:04.999Z</time></trkpt><trkpt lat="45.82324603767693" lon="10.06383938744817"><ele>618.0</ele><time>2026-04-05T08:23:09.999Z</time></trkpt><trkpt lat="45.82328662726365" lon="10.06392588178205"><ele>618.0</ele><time>2026-04-05T08:23:14.999Z</time></trkpt><trkpt lat="45.82332172691965" lon="10.064007023178844"><ele>618.0</ele><time>2026-04-05T08:23:19.998Z</time></trkpt><trkpt lat="45.823356247857866" lon="10.064088665162025"><ele>618.0</ele><time>2026-04-05T08:23:25.998Z</time></trkpt><trkpt lat="45.82338120904967" lon="10.064178837870182"><ele>618.0000000000001</ele><time>2026-04-05T08:23:36.998Z</time></trkpt><trkpt lat="45.82331910616395" lon="10.06425375831002"><ele>618.0</ele><time>2026-04-05T08:23:44.998Z</time></trkpt><trkpt lat="45.82326583576155" lon="10.064318304036567"><ele>616.0000000000001</ele><time>2026-04-05T08:23:52Z</time></trkpt><trkpt lat="45.823210718068886" lon="10.064372866443549"><ele>614.0</ele><time>2026-04-05T08:23:58Z</time></trkpt><trkpt lat="45.82316993637553" lon="10.064445062365156"><ele>612.0</ele><time>2026-04-05T08:24:05Z</time></trkpt><trkpt lat="45.82313017175181" lon="10.064519812573407"><ele>610.0</ele><time>2026-04-05T08:24:11Z</time></trkpt><trkpt lat="45.82307119928325" lon="10.064565129624823"><ele>608.0</ele><time>2026-04-05T08:24:17Z</time></trkpt><trkpt lat="45.82302151925851" lon="10.064629919830773"><ele>606.0000000000001</ele><time>2026-04-05T08:24:21Z</time></trkpt><trkpt lat="45.82297476421203" lon="10.064706204931356"><ele>604.0</ele><time>2026-04-05T08:24:26Z</time></trkpt><trkpt lat="45.82290682702097" lon="10.064746954880775"><ele>604.0000000000001</ele><time>2026-04-05T08:24:30Z</time></trkpt><trkpt lat="45.822862681393886" lon="10.064821102267812"><ele>604.0</ele><time>2026-04-05T08:24:33.999Z</time></trkpt><trkpt lat="45.822885267077595" lon="10.064913851470143"><ele>604.0</ele><time>2026-04-05T08:24:37.999Z</time></trkpt><trkpt lat="45.82293022325436" lon="10.064984350289357"><ele>604.0</ele><time>2026-04-05T08:24:42.999Z</time></trkpt><trkpt lat="45.822980845254854" lon="10.065047845322095"><ele>604.0</ele><time>2026-04-05T08:24:49.999Z</time></trkpt><trkpt lat="45.82303479017691" lon="10.065123626626463"><ele>604.0000000000001</ele><time>2026-04-05T08:24:54.999Z</time></trkpt><trkpt lat="45.82309469475797" lon="10.065158987456105"><ele>604.0</ele><time>2026-04-05T08:25:05.999Z</time></trkpt><trkpt lat="45.82313311767506" lon="10.065232812476186"><ele>602.2857142857143</ele><time>2026-04-05T08:25:13.999Z</time></trkpt><trkpt lat="45.82316194281903" lon="10.065322481156226"><ele>600.5714285714286</ele><time>2026-04-05T08:25:30.998Z</time></trkpt><trkpt lat="45.82321580703753" lon="10.065370518383935"><ele>598.8571428571429</ele><time>2026-04-05T08:25:36.998Z</time></trkpt><trkpt lat="45.82327009150558" lon="10.065417938079177"><ele>597.1428571428571</ele><time>2026-04-05T08:25:43.998Z</time></trkpt><trkpt lat="45.82332279578298" lon="10.065469191053442"><ele>595.4285714285714</ele><time>2026-04-05T08:25:48.998Z</time></trkpt><trkpt lat="45.823374663812665" lon="10.065521784192091"><ele>593.7142857142858</ele><time>2026-04-05T08:25:55Z</time></trkpt><trkpt lat="45.823416161854155" lon="10.065591638599349"><ele>592.0</ele><time>2026-04-05T08:26:02Z</time></trkpt><trkpt lat="45.82345540466284" lon="10.06567346836155"><ele>589.5714285714286</ele><time>2026-04-05T08:26:11Z</time></trkpt><trkpt lat="45.823517136277474" lon="10.065715337970005"><ele>587.1428571428571</ele><time>2026-04-05T08:26:22Z</time></trkpt><trkpt lat="45.823584453664324" lon="10.065732609932471"><ele>584.7142857142857</ele><time>2026-04-05T08:26:36.999Z</time></trkpt><trkpt lat="45.82364347637473" lon="10.065789833722903"><ele>582.2857142857142</ele><time>2026-04-05T08:26:43.999Z</time></trkpt><trkpt lat="45.82370033034808" lon="10.065830592090778"><ele>579.8571428571428</ele><time>2026-04-05T08:26:48.999Z</time></trkpt><trkpt lat="45.823768861209466" lon="10.065852192761836"><ele>577.4285714285714</ele><time>2026-04-05T08:26:55.999Z</time></trkpt><trkpt lat="45.823827699888525" lon="10.065884364865926"><ele>575.0</ele><time>2026-04-05T08:27:02.999Z</time></trkpt><trkpt lat="45.82389547085747" lon="10.065932708121329"><ele>575.0</ele><time>2026-04-05T08:27:09.999Z</time></trkpt><trkpt lat="45.82394545323025" lon="10.065989041308427"><ele>575.0</ele><time>2026-04-05T08:27:16.999Z</time></trkpt><trkpt lat="45.82400639398768" lon="10.066032287998775"><ele>575.0</ele><time>2026-04-05T08:27:21.999Z</time></trkpt><trkpt lat="45.824066991308584" lon="10.066086650574594"><ele>575.0</ele><time>2026-04-05T08:27:27.998Z</time></trkpt><trkpt lat="45.82412183860465" lon="10.066142443341391"><ele>575.0</ele><time>2026-04-05T08:27:32.998Z</time></trkpt><trkpt lat="45.8242053247568" lon="10.06617246370713"><ele>575.0</ele><time>2026-04-05T08:27:42.998Z</time></trkpt><trkpt lat="45.824261650389936" lon="10.066231631584449"><ele>575.0</ele><time>2026-04-05T08:27:51.998Z</time></trkpt><trkpt lat="45.824302958620834" lon="10.066306882470398"><ele>574.0</ele><time>2026-04-05T08:27:58.998Z</time></trkpt><trkpt lat="45.824349700687634" lon="10.066386194465048"><ele>573.0</ele><time>2026-04-05T08:28:07Z</time></trkpt><trkpt lat="45.8244109930809" lon="10.06643363248649"><ele>572.0</ele><time>2026-04-05T08:28:13Z</time></trkpt><trkpt lat="45.82446259811567" lon="10.066488777938433"><ele>571.0</ele><time>2026-04-05T08:28:17Z</time></trkpt><trkpt lat="45.824509475758575" lon="10.066560795069947"><ele>570.0</ele><time>2026-04-05T08:28:23Z</time></trkpt><trkpt lat="45.824549028052765" lon="10.066635439484696"><ele>569.0</ele><time>2026-04-05T08:28:29Z</time></trkpt><trkpt lat="45.824602128086454" lon="10.066716796983691"><ele>568.0</ele><time>2026-04-05T08:28:34Z</time></trkpt><trkpt lat="45.82465558075492" lon="10.066767711238958"><ele>568.0</ele><time>2026-04-05T08:28:38.999Z</time></trkpt><trkpt lat="45.824690429235986" lon="10.066845612946295"><ele>568.0</ele><time>2026-04-05T08:28:43.999Z</time></trkpt><trkpt lat="45.82473232350225" lon="10.066914767168848"><ele>568.0</ele><time>2026-04-05T08:28:49.999Z</time></trkpt><trkpt lat="45.824790409544256" lon="10.066954740460204"><ele>568.0</ele><time>2026-04-05T08:28:54.999Z</time></trkpt><trkpt lat="45.82486711618518" lon="10.066978207521277"><ele>568.0</ele><time>2026-04-05T08:29:00.999Z</time></trkpt><trkpt lat="45.82493334644623" lon="10.066982291432813"><ele>568.0</ele><time>2026-04-05T08:29:05.999Z</time></trkpt><trkpt lat="45.824995437311564" lon="10.067001861449324"><ele>568.0</ele><time>2026-04-05T08:29:12.999Z</time></trkpt><trkpt lat="45.82505620908669" lon="10.06704452240037"><ele>568.0</ele><time>2026-04-05T08:29:17.999Z</time></trkpt><trkpt lat="45.82512420187139" lon="10.067090851469032"><ele>568.0</ele><time>2026-04-05T08:29:22.999Z</time></trkpt><trkpt lat="45.82518165328285" lon="10.067139921119628"><ele>568.0</ele><time>2026-04-05T08:29:27.998Z</time></trkpt><trkpt lat="45.825253885865116" lon="10.067151761363672"><ele>568.0</ele><time>2026-04-05T08:29:32.998Z</time></trkpt><trkpt lat="45.825324591875905" lon="10.067164664759241"><ele>568.0</ele><time>2026-04-05T08:29:36.998Z</time></trkpt><trkpt lat="45.82539619596633" lon="10.06716067918032"><ele>568.0</ele><time>2026-04-05T08:29:40.998Z</time></trkpt><trkpt lat="45.825471819002615" lon="10.067177558122966"><ele>568.0</ele><time>2026-04-05T08:29:47.998Z</time></trkpt><trkpt lat="45.82554333022677" lon="10.067198492659234"><ele>567.2857142857142</ele><time>2026-04-05T08:29:52.998Z</time></trkpt><trkpt lat="45.825609205934434" lon="10.067240175538355"><ele>566.5714285714286</ele><time>2026-04-05T08:29:57.998Z</time></trkpt><trkpt lat="45.82565867655432" lon="10.067310002690324"><ele>565.8571428571429</ele><time>2026-04-05T08:30:07Z</time></trkpt><trkpt lat="45.82572613760839" lon="10.067351179968995"><ele>565.1428571428571</ele><time>2026-04-05T08:30:12Z</time></trkpt><trkpt lat="45.82579424899298" lon="10.067396250534074"><ele>564.4285714285714</ele><time>2026-04-05T08:30:17Z</time></trkpt><trkpt lat="45.825851036350414" lon="10.067437160668884"><ele>563.7142857142857</ele><time>2026-04-05T08:30:22Z</time></trkpt><trkpt lat="45.8259235046351" lon="10.067476075480847"><ele>563.0</ele><time>2026-04-05T08:30:27Z</time></trkpt><trkpt lat="45.82602294197845" lon="10.067485604397163"><ele>563.0</ele><time>2026-04-05T08:30:37Z</time></trkpt><trkpt lat="45.82608749497246" lon="10.06751066978616"><ele>563.0</ele><time>2026-04-05T08:30:46.999Z</time></trkpt><trkpt lat="45.82615704784697" lon="10.067542807553115"><ele>563.0</ele><time>2026-04-05T08:30:52.999Z</time></trkpt><trkpt lat="45.82622321566493" lon="10.067568286711385"><ele>563.0</ele><time>2026-04-05T08:30:57.999Z</time></trkpt><trkpt lat="45.82629851388779" lon="10.067577275975083"><ele>563.0</ele><time>2026-04-05T08:31:04.999Z</time></trkpt><trkpt lat="45.826356531884656" lon="10.067613970937494"><ele>563.0</ele><time>2026-04-05T08:31:09.999Z</time></trkpt><trkpt lat="45.82640239355194" lon="10.067675926745704"><ele>563.0</ele><time>2026-04-05T08:31:14.999Z</time></trkpt><trkpt lat="45.82647268710939" lon="10.06772972355623"><ele>563.0</ele><time>2026-04-05T08:31:20.999Z</time></trkpt><trkpt lat="45.82653288349905" lon="10.067781643845715"><ele>563.0</ele><time>2026-04-05T08:31:24.999Z</time></trkpt><trkpt lat="45.82659722616111" lon="10.06781699428488"><ele>563.0</ele><time>2026-04-05T08:31:28.999Z</time></trkpt><trkpt lat="45.82665611176018" lon="10.067850007881738"><ele>563.0</ele><time>2026-04-05T08:31:33.999Z</time></trkpt><trkpt lat="45.82672068069343" lon="10.067863455664758"><ele>563.0</ele><time>2026-04-05T08:31:37.998Z</time></trkpt><trkpt lat="45.826785028074056" lon="10.06791517396153"><ele>563.0</ele><time>2026-04-05T08:31:44.998Z</time></trkpt><trkpt lat="45.82684518924732" lon="10.067953539450075"><ele>563.0</ele><time>2026-04-05T08:31:48.998Z</time></trkpt><trkpt lat="45.82691093336532" lon="10.067998511880516"><ele>559.7142857142857</ele><time>2026-04-05T08:31:55.998Z</time></trkpt><trkpt lat="45.826967881222664" lon="10.068048779187535"><ele>556.4285714285714</ele><time>2026-04-05T08:32:01.998Z</time></trkpt><trkpt lat="45.827030375446526" lon="10.06811239432962"><ele>553.1428571428571</ele><time>2026-04-05T08:32:09.998Z</time></trkpt><trkpt lat="45.82708274317602" lon="10.068171910072445"><ele>549.8571428571429</ele><time>2026-04-05T08:32:15Z</time></trkpt><trkpt lat="45.827147972340576" lon="10.0682319450088"><ele>546.5714285714286</ele><time>2026-04-05T08:32:21Z</time></trkpt><trkpt lat="45.82719835765035" lon="10.068289348436533"><ele>543.2857142857142</ele><time>2026-04-05T08:32:31Z</time></trkpt><trkpt lat="45.82727401623111" lon="10.06834227154425"><ele>540.0</ele><time>2026-04-05T08:32:48Z</time></trkpt><trkpt lat="45.827307854903886" lon="10.068421583656171"><ele>540.0</ele><time>2026-04-05T08:32:58.999Z</time></trkpt><trkpt lat="45.827328887888825" lon="10.0685176551032"><ele>540.0</ele><time>2026-04-05T08:33:05.999Z</time></trkpt><trkpt lat="45.82738398876761" lon="10.068594886063421"><ele>540.0</ele><time>2026-04-05T08:33:12.999Z</time></trkpt><trkpt lat="45.827427747342966" lon="10.068667688385975"><ele>540.0</ele><time>2026-04-05T08:33:17.999Z</time></trkpt><trkpt lat="45.82746024575734" lon="10.068763886139756"><ele>540.0</ele><time>2026-04-05T08:33:26.999Z</time></trkpt><trkpt lat="45.827503700108615" lon="10.068838525169717"><ele>540.0</ele><time>2026-04-05T08:33:36.999Z</time></trkpt><trkpt lat="45.827500805092804" lon="10.06892911487627"><ele>540.0</ele><time>2026-04-05T08:33:45.998Z</time></trkpt><trkpt lat="45.827500895876106" lon="10.069027232710285"><ele>537.5714285714286</ele><time>2026-04-05T08:33:52.998Z</time></trkpt><trkpt lat="45.82749755936658" lon="10.069118280993141"><ele>535.1428571428571</ele><time>2026-04-05T08:34:03.998Z</time></trkpt><trkpt lat="45.82750216572451" lon="10.069231380627446"><ele>532.7142857142857</ele><time>2026-04-05T08:34:15.998Z</time></trkpt><trkpt lat="45.827495817914276" lon="10.069336189808498"><ele>530.2857142857142</ele><time>2026-04-05T08:34:25Z</time></trkpt><trkpt lat="45.82749942316819" lon="10.069454473226733"><ele>527.8571428571429</ele><time>2026-04-05T08:34:31Z</time></trkpt><trkpt lat="45.827460742704076" lon="10.06953933663761"><ele>525.4285714285713</ele><time>2026-04-05T08:34:39Z</time></trkpt><trkpt lat="45.82743512323364" lon="10.069627587386318"><ele>523.0</ele><time>2026-04-05T08:34:46Z</time></trkpt><trkpt lat="45.82740420389598" lon="10.069728122615262"><ele>522.9999999999999</ele><time>2026-04-05T08:34:51Z</time></trkpt><trkpt lat="45.82738057896534" lon="10.069823934649452"><ele>523.0</ele><time>2026-04-05T08:34:55Z</time></trkpt><trkpt lat="45.82732912240412" lon="10.069907695811557"><ele>523.0</ele><time>2026-04-05T08:34:59.999Z</time></trkpt><trkpt lat="45.82731630205608" lon="10.070007146307962"><ele>523.0</ele><time>2026-04-05T08:35:03.999Z</time></trkpt><trkpt lat="45.82729576522222" lon="10.07009995953935"><ele>523.0</ele><time>2026-04-05T08:35:08.999Z</time></trkpt><trkpt lat="45.827309231476995" lon="10.07020970891588"><ele>522.9999999999999</ele><time>2026-04-05T08:35:14.999Z</time></trkpt><trkpt lat="45.827317963177315" lon="10.070303567928859"><ele>523.0</ele><time>2026-04-05T08:35:21.999Z</time></trkpt><trkpt lat="45.827345590351015" lon="10.070391197421285"><ele>522.9999999999999</ele><time>2026-04-05T08:35:26.999Z</time></trkpt><trkpt lat="45.82736660051997" lon="10.07049231541658"><ele>523.0</ele><time>2026-04-05T08:35:32.999Z</time></trkpt><trkpt lat="45.82741462516498" lon="10.070566825297808"><ele>523.0</ele><time>2026-04-05T08:35:37.999Z</time></trkpt><trkpt lat="45.82743066316916" lon="10.070662298146502"><ele>523.0</ele><time>2026-04-05T08:35:43.999Z</time></trkpt><trkpt lat="45.82741651354796" lon="10.070758246380311"><ele>523.0</ele><time>2026-04-05T08:35:51.998Z</time></trkpt><trkpt lat="45.82740272235898" lon="10.070854060477487"><ele>522.9999999999999</ele><time>2026-04-05T08:35:57.998Z</time></trkpt><trkpt lat="45.827363776100555" lon="10.070950445565558"><ele>523.0</ele><time>2026-04-05T08:36:03.998Z</time></trkpt><trkpt lat="45.827342142366334" lon="10.071035747415797"><ele>522.9999999999999</ele><time>2026-04-05T08:36:07.998Z</time></trkpt><trkpt lat="45.8273277541156" lon="10.07114024130225"><ele>523.0</ele><time>2026-04-05T08:36:13.998Z</time></trkpt><trkpt lat="45.82730437669514" lon="10.071225532589462"><ele>523.0</ele><time>2026-04-05T08:36:19.998Z</time></trkpt><trkpt lat="45.82729707288979" lon="10.071322103004915"><ele>523.0</ele><time>2026-04-05T08:36:25Z</time></trkpt><trkpt lat="45.8272756856155" lon="10.071421599586746"><ele>523.0</ele><time>2026-04-05T08:36:32Z</time></trkpt><trkpt lat="45.827240281797124" lon="10.07150638371451"><ele>522.9999999999999</ele><time>2026-04-05T08:36:36Z</time></trkpt><trkpt lat="45.82718720490492" lon="10.071582915594947"><ele>523.0</ele><time>2026-04-05T08:36:42Z</time></trkpt><trkpt lat="45.82716489055628" lon="10.07166912610282"><ele>522.4285714285713</ele><time>2026-04-05T08:36:48Z</time></trkpt><trkpt lat="45.82716175377251" lon="10.07177218259574"><ele>521.8571428571429</ele><time>2026-04-05T08:36:53Z</time></trkpt><trkpt lat="45.827155192477775" lon="10.071876047416689"><ele>521.2857142857142</ele><time>2026-04-05T08:36:59Z</time></trkpt><trkpt lat="45.82717742094941" lon="10.071967297496245"><ele>520.7142857142857</ele><time>2026-04-05T08:37:05.999Z</time></trkpt><trkpt lat="45.82718412168038" lon="10.072063349602905"><ele>520.1428571428571</ele><time>2026-04-05T08:37:09.999Z</time></trkpt><trkpt lat="45.827204475468385" lon="10.072151534041394"><ele>519.5714285714286</ele><time>2026-04-05T08:37:53.999Z</time></trkpt><trkpt lat="45.8272305867144" lon="10.072234860283501"><ele>519.0</ele><time>2026-04-05T08:37:59.998Z</time></trkpt><trkpt lat="45.82726595394748" lon="10.072320410875486"><ele>519.0</ele><time>2026-04-05T08:38:09.998Z</time></trkpt><trkpt lat="45.82732065621348" lon="10.072378070534182"><ele>519.0</ele><time>2026-04-05T08:38:19.998Z</time></trkpt><trkpt lat="45.8273375786595" lon="10.072466556610925"><ele>519.0</ele><time>2026-04-05T08:38:24.998Z</time></trkpt><trkpt lat="45.82739030135528" lon="10.072564698114826"><ele>519.0</ele><time>2026-04-05T08:38:29.998Z</time></trkpt><trkpt lat="45.827431132897324" lon="10.07264460983315"><ele>519.0</ele><time>2026-04-05T08:38:34Z</time></trkpt><trkpt lat="45.82747159717084" lon="10.072727435649917"><ele>519.0</ele><time>2026-04-05T08:38:40Z</time></trkpt><trkpt lat="45.82751722286177" lon="10.072802514367929"><ele>519.0</ele><time>2026-04-05T08:38:45Z</time></trkpt><trkpt lat="45.82755441064818" lon="10.072921038293995"><ele>518.5714285714286</ele><time>2026-04-05T08:38:57Z</time></trkpt><trkpt lat="45.827601735190655" lon="10.073004274350787"><ele>518.1428571428571</ele><time>2026-04-05T08:39:03Z</time></trkpt><trkpt lat="45.82762312966331" lon="10.073092856982614"><ele>517.7142857142857</ele><time>2026-04-05T08:39:07.999Z</time></trkpt><trkpt lat="45.82764481823781" lon="10.073183086633412"><ele>517.2857142857142</ele><time>2026-04-05T08:39:11.999Z</time></trkpt><trkpt lat="45.82768530226706" lon="10.073282099473818"><ele>516.8571428571429</ele><time>2026-04-05T08:39:17.999Z</time></trkpt><trkpt lat="45.827727081060075" lon="10.073366983332528"><ele>516.4285714285713</ele><time>2026-04-05T08:39:22.999Z</time></trkpt><trkpt lat="45.82776882693855" lon="10.073435657986689"><ele>516.0</ele><time>2026-04-05T08:39:27.999Z</time></trkpt><trkpt lat="45.82783471868839" lon="10.073476792349725"><ele>515.9999999999999</ele><time>2026-04-05T08:39:32.999Z</time></trkpt><trkpt lat="45.827892274172065" lon="10.07351665537166"><ele>516.0</ele><time>2026-04-05T08:39:37.999Z</time></trkpt><trkpt lat="45.82792178472397" lon="10.07361793477129"><ele>516.0</ele><time>2026-04-05T08:39:45.999Z</time></trkpt><trkpt lat="45.82789721487534" lon="10.073722011081927"><ele>516.0</ele><time>2026-04-05T08:39:51.999Z</time></trkpt><trkpt lat="45.82786360464785" lon="10.073802777040438"><ele>516.0</ele><time>2026-04-05T08:39:56.999Z</time></trkpt><trkpt lat="45.827842710605985" lon="10.073901269234016"><ele>515.9999999999999</ele><time>2026-04-05T08:40:01.998Z</time></trkpt><trkpt lat="45.82782248379843" lon="10.073990550925028"><ele>516.0</ele><time>2026-04-05T08:40:06.998Z</time></trkpt><trkpt lat="45.827789663906536" lon="10.074085673042982"><ele>516.2857142857142</ele><time>2026-04-05T08:40:11.998Z</time></trkpt><trkpt lat="45.82775535683753" lon="10.074161540073021"><ele>516.5714285714286</ele><time>2026-04-05T08:40:15.998Z</time></trkpt><trkpt lat="45.82770465149859" lon="10.074216386625455"><ele>516.8571428571429</ele><time>2026-04-05T08:40:19.998Z</time></trkpt><trkpt lat="45.82766567172296" lon="10.074302956508737"><ele>517.1428571428571</ele><time>2026-04-05T08:40:24.998Z</time></trkpt><trkpt lat="45.827653874572505" lon="10.074406484479082"><ele>517.4285714285714</ele><time>2026-04-05T08:40:29.998Z</time></trkpt><trkpt lat="45.82765043715582" lon="10.074497385330812"><ele>517.7142857142857</ele><time>2026-04-05T08:40:34.998Z</time></trkpt><trkpt lat="45.82765917411472" lon="10.074605018083483"><ele>518.0</ele><time>2026-04-05T08:40:40Z</time></trkpt><trkpt lat="45.827679203665625" lon="10.074708765681715"><ele>518.0</ele><time>2026-04-05T08:40:45Z</time></trkpt><trkpt lat="45.82770883469384" lon="10.074809987562928"><ele>518.0</ele><time>2026-04-05T08:40:50Z</time></trkpt><trkpt lat="45.827723594845764" lon="10.074915182732914"><ele>518.0</ele><time>2026-04-05T08:40:55Z</time></trkpt><trkpt lat="45.82774602029082" lon="10.075006958656642"><ele>518.0</ele><time>2026-04-05T08:41:00Z</time></trkpt><trkpt lat="45.827756709917814" lon="10.0751038437111"><ele>518.0</ele><time>2026-04-05T08:41:05Z</time></trkpt><trkpt lat="45.82777485891016" lon="10.07520302002771"><ele>518.0</ele><time>2026-04-05T08:41:10Z</time></trkpt><trkpt lat="45.82779097269893" lon="10.07530398132044"><ele>518.0</ele><time>2026-04-05T08:41:15Z</time></trkpt><trkpt lat="45.82781347155606" lon="10.075407860305779"><ele>516.5714285714286</ele><time>2026-04-05T08:41:19.999Z</time></trkpt><trkpt lat="45.82781820286515" lon="10.07551423385855"><ele>515.1428571428571</ele><time>2026-04-05T08:41:24.999Z</time></trkpt><trkpt lat="45.82781867376904" lon="10.075622155987869"><ele>513.7142857142858</ele><time>2026-04-05T08:41:29.999Z</time></trkpt><trkpt lat="45.82782347325294" lon="10.075722261112741"><ele>512.2857142857142</ele><time>2026-04-05T08:41:34.999Z</time></trkpt><trkpt lat="45.82785744129855" lon="10.075801723228437"><ele>510.85714285714283</ele><time>2026-04-05T08:41:39.999Z</time></trkpt><trkpt lat="45.8278728310771" lon="10.075907323491005"><ele>509.42857142857144</ele><time>2026-04-05T08:41:44.999Z</time></trkpt><trkpt lat="45.82787157360968" lon="10.076000392395013"><ele>508.0</ele><time>2026-04-05T08:41:49.999Z</time></trkpt><trkpt lat="45.82787287513594" lon="10.076094476372395"><ele>505.28571428571433</ele><time>2026-04-05T08:41:54.999Z</time></trkpt><trkpt lat="45.82789357480505" lon="10.076194278186204"><ele>502.57142857142856</ele><time>2026-04-05T08:42:55Z</time></trkpt><trkpt lat="45.82791926897066" lon="10.076299215633991"><ele>499.8571428571429</ele><time>2026-04-05T08:43:00Z</time></trkpt><trkpt lat="45.82794112436068" lon="10.07639730407504"><ele>497.14285714285717</ele><time>2026-04-05T08:43:05Z</time></trkpt><trkpt lat="45.82796093786179" lon="10.076491781892415"><ele>494.42857142857144</ele><time>2026-04-05T08:43:10Z</time></trkpt><trkpt lat="45.82798771227353" lon="10.076589280463068"><ele>491.7142857142857</ele><time>2026-04-05T08:43:15Z</time></trkpt><trkpt lat="45.82799610648924" lon="10.076681417037811"><ele>489.0</ele><time>2026-04-05T08:43:20Z</time></trkpt><trkpt lat="45.828010556163655" lon="10.076773602962463"><ele>485.42857142857144</ele><time>2026-04-05T08:43:25Z</time></trkpt><trkpt lat="45.828034751753094" lon="10.076857185545562"><ele>481.8571428571429</ele><time>2026-04-05T08:43:29.999Z</time></trkpt><trkpt lat="45.8280690289511" lon="10.076957572102037"><ele>478.28571428571433</ele><time>2026-04-05T08:43:34.999Z</time></trkpt><trkpt lat="45.828099581100865" lon="10.077056622469552"><ele>474.7142857142858</ele><time>2026-04-05T08:43:39.999Z</time></trkpt><trkpt lat="45.828134725117856" lon="10.077146565103252"><ele>471.14285714285717</ele><time>2026-04-05T08:43:44.999Z</time></trkpt><trkpt lat="45.82817962571905" lon="10.0772253837481"><ele>467.57142857142867</ele><time>2026-04-05T08:43:49.999Z</time></trkpt><trkpt lat="45.828224830498286" lon="10.077300941895306"><ele>464.00000000000006</ele><time>2026-04-05T08:43:54.999Z</time></trkpt><trkpt lat="45.82827778732841" lon="10.077367507829493"><ele>464.00000000000006</ele><time>2026-04-05T08:44:00.999Z</time></trkpt><trkpt lat="45.82833551785949" lon="10.077410685408289"><ele>464.0</ele><time>2026-04-05T08:44:05.999Z</time></trkpt><trkpt lat="45.82840103803148" lon="10.077440163449666"><ele>464.00000000000006</ele><time>2026-04-05T08:44:11.999Z</time></trkpt><trkpt lat="45.82845842591779" lon="10.077504819053674"><ele>464.00000000000006</ele><time>2026-04-05T08:44:16.999Z</time></trkpt><trkpt lat="45.82851169387189" lon="10.077586029891034"><ele>464.0</ele><time>2026-04-05T08:44:21.998Z</time></trkpt><trkpt lat="45.82854182823517" lon="10.077671864177853"><ele>464.00000000000006</ele><time>2026-04-05T08:44:25.998Z</time></trkpt><trkpt lat="45.82857829510728" lon="10.077751594792137"><ele>464.00000000000006</ele><time>2026-04-05T08:44:29.998Z</time></trkpt><trkpt lat="45.828606300578734" lon="10.07783813720472"><ele>464.00000000000006</ele><time>2026-04-05T08:44:33.998Z</time></trkpt><trkpt lat="45.82861879572817" lon="10.077929435153052"><ele>464.0</ele><time>2026-04-05T08:44:37.998Z</time></trkpt><trkpt lat="45.828674677815364" lon="10.07798351901133"><ele>464.00000000000006</ele><time>2026-04-05T08:44:45.998Z</time></trkpt><trkpt lat="45.82872201196059" lon="10.0780523126649"><ele>464.00000000000006</ele><time>2026-04-05T08:44:51Z</time></trkpt><trkpt lat="45.828723002296556" lon="10.078153498525317"><ele>464.0</ele><time>2026-04-05T08:44:56Z</time></trkpt><trkpt lat="45.82873084104824" lon="10.078247656386774"><ele>464.00000000000006</ele><time>2026-04-05T08:45:01Z</time></trkpt><trkpt lat="45.82876175447303" lon="10.078333901072025"><ele>464.00000000000006</ele><time>2026-04-05T08:45:06Z</time></trkpt><trkpt lat="45.82879414257024" lon="10.078423504952458"><ele>463.99999999999994</ele><time>2026-04-05T08:45:12Z</time></trkpt><trkpt lat="45.82881388689396" lon="10.078513488287975"><ele>464.0</ele><time>2026-04-05T08:45:21Z</time></trkpt><trkpt lat="45.82881311928086" lon="10.078617562299351"><ele>464.0</ele><time>2026-04-05T08:45:27Z</time></trkpt><trkpt lat="45.82875776628377" lon="10.078661893298525"><ele>464.0</ele><time>2026-04-05T08:45:32Z</time></trkpt><trkpt lat="45.82868133248374" lon="10.078647151359396"><ele>463.99999999999994</ele><time>2026-04-05T08:45:38.999Z</time></trkpt><trkpt lat="45.82861000742193" lon="10.078630634352528"><ele>464.0</ele><time>2026-04-05T08:45:48.999Z</time></trkpt><trkpt lat="45.828692154070204" lon="10.078864814722984"><ele>463.99999999999994</ele><time>2026-04-05T08:46:54.998Z</time></trkpt><trkpt lat="45.828798750461466" lon="10.07892490533154"><ele>464.0</ele><time>2026-04-05T08:47:04Z</time></trkpt><trkpt lat="45.828771765197374" lon="10.07901943805246"><ele>464.0</ele><time>2026-04-05T08:47:17Z</time></trkpt><trkpt lat="45.82873093710938" lon="10.079093189958728"><ele>464.0</ele><time>2026-04-05T08:47:22Z</time></trkpt><trkpt lat="45.828724226355625" lon="10.079200589762033"><ele>463.99999999999994</ele><time>2026-04-05T08:47:27Z</time></trkpt><trkpt lat="45.828703744841235" lon="10.079297204652308"><ele>464.0</ele><time>2026-04-05T08:47:31Z</time></trkpt><trkpt lat="45.828690534047425" lon="10.07939855180682"><ele>463.3333333333333</ele><time>2026-04-05T08:47:36Z</time></trkpt><trkpt lat="45.8286407418559" lon="10.079455818216994"><ele>462.66666666666663</ele><time>2026-04-05T08:47:39.999Z</time></trkpt><trkpt lat="45.82859143855524" lon="10.079596357507796"><ele>462.0</ele><time>2026-04-05T08:48:17.999Z</time></trkpt><trkpt lat="45.82857238235048" lon="10.079685995168946"><ele>461.33333333333337</ele><time>2026-04-05T08:48:23.999Z</time></trkpt><trkpt lat="45.82857247605443" lon="10.07979632982581"><ele>460.6666666666667</ele><time>2026-04-05T08:48:29.998Z</time></trkpt><trkpt lat="45.82856833820084" lon="10.079891705280591"><ele>460.0</ele><time>2026-04-05T08:48:34.998Z</time></trkpt><trkpt lat="45.828569776111024" lon="10.079991258646356"><ele>459.2857142857142</ele><time>2026-04-05T08:48:39.998Z</time></trkpt><trkpt lat="45.82856784903756" lon="10.080104334787796"><ele>458.57142857142856</ele><time>2026-04-05T08:48:44.998Z</time></trkpt><trkpt lat="45.82857338913287" lon="10.08020924695199"><ele>457.85714285714283</ele><time>2026-04-05T08:48:49.998Z</time></trkpt><trkpt lat="45.828576888245365" lon="10.080307883315294"><ele>457.1428571428571</ele><time>2026-04-05T08:48:54.998Z</time></trkpt><trkpt lat="45.82859052841051" lon="10.080414977978391"><ele>456.42857142857144</ele><time>2026-04-05T08:48:59.998Z</time></trkpt><trkpt lat="45.828595309479454" lon="10.080519760999344"><ele>455.7142857142857</ele><time>2026-04-05T08:49:05Z</time></trkpt><trkpt lat="45.82861104108495" lon="10.080617146108002"><ele>455.0</ele><time>2026-04-05T08:49:10Z</time></trkpt><trkpt lat="45.82863563122111" lon="10.080708421655304"><ele>452.85714285714283</ele><time>2026-04-05T08:49:17Z</time></trkpt><trkpt lat="45.82867553885072" lon="10.080785663072541"><ele>450.7142857142857</ele><time>2026-04-05T08:49:22Z</time></trkpt><trkpt lat="45.82872499032524" lon="10.080880391969874"><ele>448.57142857142856</ele><time>2026-04-05T08:49:28Z</time></trkpt><trkpt lat="45.82877983323825" lon="10.080940494955984"><ele>446.42857142857144</ele><time>2026-04-05T08:49:33Z</time></trkpt><trkpt lat="45.82882924548412" lon="10.081000728131633"><ele>444.2857142857143</ele><time>2026-04-05T08:49:37Z</time></trkpt><trkpt lat="45.8288753734434" lon="10.081065998833248"><ele>442.1428571428571</ele><time>2026-04-05T08:49:42Z</time></trkpt><trkpt lat="45.82892735939586" lon="10.081135348198094"><ele>440.0</ele><time>2026-04-05T08:49:46.999Z</time></trkpt><trkpt lat="45.82897390847699" lon="10.08119625699341"><ele>439.99999999999994</ele><time>2026-04-05T08:49:51.999Z</time></trkpt><trkpt lat="45.82903974369983" lon="10.081249845419691"><ele>440.0</ele><time>2026-04-05T08:49:57.999Z</time></trkpt><trkpt lat="45.82909995196123" lon="10.081281133421372"><ele>440.0</ele><time>2026-04-05T08:50:01.999Z</time></trkpt><trkpt lat="45.8291699486815" lon="10.08132521075003"><ele>440.0</ele><time>2026-04-05T08:50:06.999Z</time></trkpt><trkpt lat="45.82922963508473" lon="10.081384158974132"><ele>440.0</ele><time>2026-04-05T08:50:11.999Z</time></trkpt><trkpt lat="45.82928760461626" lon="10.081449313702711"><ele>439.99999999999994</ele><time>2026-04-05T08:50:16.999Z</time></trkpt><trkpt lat="45.82934664535288" lon="10.081482290512023"><ele>440.0</ele><time>2026-04-05T08:50:21.999Z</time></trkpt><trkpt lat="45.82940467564525" lon="10.081518843233729"><ele>439.85714285714283</ele><time>2026-04-05T08:50:26.999Z</time></trkpt><trkpt lat="45.829474270587994" lon="10.081560737398554"><ele>439.7142857142857</ele><time>2026-04-05T08:50:32.998Z</time></trkpt><trkpt lat="45.82953745062017" lon="10.081600204494805"><ele>439.57142857142856</ele><time>2026-04-05T08:50:37.998Z</time></trkpt><trkpt lat="45.82960337020339" lon="10.081622257843463"><ele>439.42857142857144</ele><time>2026-04-05T08:50:43.998Z</time></trkpt><trkpt lat="45.82967521610913" lon="10.081645665287876"><ele>439.2857142857143</ele><time>2026-04-05T08:50:50.998Z</time></trkpt><trkpt lat="45.829733044256" lon="10.081712262356534"><ele>439.1428571428571</ele><time>2026-04-05T08:50:56.998Z</time></trkpt><trkpt lat="45.8297696356005" lon="10.081809442368225"><ele>439.0</ele><time>2026-04-05T08:51:02.998Z</time></trkpt><trkpt lat="45.82980343603136" lon="10.081898461236063"><ele>439.0</ele><time>2026-04-05T08:51:07.998Z</time></trkpt><trkpt lat="45.82980079951391" lon="10.081994006461484"><ele>439.0</ele><time>2026-04-05T08:51:14Z</time></trkpt><trkpt lat="45.829843468368615" lon="10.082062242683604"><ele>439.0</ele><time>2026-04-05T08:51:19Z</time></trkpt><trkpt lat="45.82986435490736" lon="10.08216057211314"><ele>439.0</ele><time>2026-04-05T08:51:24Z</time></trkpt><trkpt lat="45.82986824649949" lon="10.082261629153423"><ele>439.0</ele><time>2026-04-05T08:51:29Z</time></trkpt><trkpt lat="45.829877635274876" lon="10.082369253602854"><ele>439.0</ele><time>2026-04-05T08:51:35Z</time></trkpt><trkpt lat="45.82991570003259" lon="10.082482682600713"><ele>439.0</ele><time>2026-04-05T08:51:50.999Z</time></trkpt><trkpt lat="45.829947771994405" lon="10.082571805219441"><ele>440.85714285714283</ele><time>2026-04-05T08:51:56.999Z</time></trkpt><trkpt lat="45.82997886878619" lon="10.08266517973767"><ele>442.71428571428567</ele><time>2026-04-05T08:52:03.999Z</time></trkpt><trkpt lat="45.830025716602115" lon="10.082747611424844"><ele>444.57142857142856</ele><time>2026-04-05T08:52:08.999Z</time></trkpt><trkpt lat="45.83006487325852" lon="10.082841721353466"><ele>446.42857142857144</ele><time>2026-04-05T08:52:14.999Z</time></trkpt><trkpt lat="45.830118304042216" lon="10.08289462031564"><ele>448.2857142857143</ele><time>2026-04-05T08:52:19.999Z</time></trkpt><trkpt lat="45.83014961127021" lon="10.08297517736368"><ele>450.14285714285717</ele><time>2026-04-05T08:52:24.999Z</time></trkpt><trkpt lat="45.83020069742483" lon="10.083031593402563"><ele>452.0</ele><time>2026-04-05T08:52:28.999Z</time></trkpt><trkpt lat="45.83026076433418" lon="10.083082707133109"><ele>452.0</ele><time>2026-04-05T08:52:33.999Z</time></trkpt><trkpt lat="45.83031532790184" lon="10.0831537533715"><ele>452.0</ele><time>2026-04-05T08:52:39.998Z</time></trkpt><trkpt lat="45.83037180120261" lon="10.083218632681778"><ele>452.0</ele><time>2026-04-05T08:52:46.998Z</time></trkpt><trkpt lat="45.830438858468156" lon="10.083267126527225"><ele>452.0</ele><time>2026-04-05T08:52:51.998Z</time></trkpt><trkpt lat="45.83049575326109" lon="10.083328382978623"><ele>452.0</ele><time>2026-04-05T08:52:56.998Z</time></trkpt><trkpt lat="45.830545220189244" lon="10.083387314368256"><ele>452.0</ele><time>2026-04-05T08:53:00.998Z</time></trkpt><trkpt lat="45.83058174084329" lon="10.083468815542933"><ele>452.0</ele><time>2026-04-05T08:53:07.998Z</time></trkpt><trkpt lat="45.83064534413861" lon="10.083524334404478"><ele>446.7142857142857</ele><time>2026-04-05T08:53:12.998Z</time></trkpt><trkpt lat="45.830706760173314" lon="10.08356728763445"><ele>441.4285714285714</ele><time>2026-04-05T08:53:18Z</time></trkpt><trkpt lat="45.83076125973182" lon="10.083625591878993"><ele>436.1428571428571</ele><time>2026-04-05T08:53:23Z</time></trkpt><trkpt lat="45.83080698608846" lon="10.083690000583982"><ele>430.8571428571429</ele><time>2026-04-05T08:53:27Z</time></trkpt><trkpt lat="45.83083678740536" lon="10.083776211841048"><ele>425.57142857142856</ele><time>2026-04-05T08:53:32Z</time></trkpt><trkpt lat="45.83088971291706" lon="10.083839966398317"><ele>420.2857142857143</ele><time>2026-04-05T08:53:37Z</time></trkpt><trkpt lat="45.830926468841234" lon="10.0839392739565"><ele>415.0</ele><time>2026-04-05T08:53:43Z</time></trkpt><trkpt lat="45.830956671066616" lon="10.084021601569514"><ele>414.7142857142857</ele><time>2026-04-05T08:53:48Z</time></trkpt><trkpt lat="45.83099358309426" lon="10.084105503488624"><ele>414.42857142857144</ele><time>2026-04-05T08:53:54.999Z</time></trkpt><trkpt lat="45.8310289966181" lon="10.08419804238418"><ele>414.1428571428571</ele><time>2026-04-05T08:54:01.999Z</time></trkpt><trkpt lat="45.831079809372056" lon="10.084280921334116"><ele>413.8571428571429</ele><time>2026-04-05T08:54:07.999Z</time></trkpt><trkpt lat="45.831128230444314" lon="10.084346830428267"><ele>413.57142857142856</ele><time>2026-04-05T08:54:12.999Z</time></trkpt><trkpt lat="45.831176955486306" lon="10.084407360277694"><ele>413.2857142857143</ele><time>2026-04-05T08:54:18.999Z</time></trkpt><trkpt lat="45.8312276344694" lon="10.084464718426272"><ele>413.0</ele><time>2026-04-05T08:54:23.999Z</time></trkpt><trkpt lat="45.831282672433254" lon="10.084515979707744"><ele>413.0</ele><time>2026-04-05T08:54:28.999Z</time></trkpt><trkpt lat="45.83134749592937" lon="10.084573522508668"><ele>413.0</ele><time>2026-04-05T08:54:33.999Z</time></trkpt><trkpt lat="45.83139180594418" lon="10.084656955214735"><ele>413.0</ele><time>2026-04-05T08:54:39.999Z</time></trkpt><trkpt lat="45.83141074967412" lon="10.084754744125528"><ele>413.0</ele><time>2026-04-05T08:54:45.998Z</time></trkpt><trkpt lat="45.83143155095091" lon="10.084851286790117"><ele>413.0</ele><time>2026-04-05T08:54:50.998Z</time></trkpt><trkpt lat="45.83139951818251" lon="10.084934076948374"><ele>413.0</ele><time>2026-04-05T08:55:00.998Z</time></trkpt><trkpt lat="45.83135113126799" lon="10.085011886879485"><ele>413.0</ele><time>2026-04-05T08:55:07.998Z</time></trkpt><trkpt lat="45.83132321873752" lon="10.085104376908415"><ele>410.14285714285717</ele><time>2026-04-05T08:55:13.998Z</time></trkpt><trkpt lat="45.83129585421077" lon="10.085187760859634"><ele>407.2857142857143</ele><time>2026-04-05T08:55:23Z</time></trkpt><trkpt lat="45.8312308123462" lon="10.085257690542313"><ele>404.42857142857144</ele><time>2026-04-05T08:55:30Z</time></trkpt><trkpt lat="45.83119874606814" lon="10.0853466634789"><ele>401.57142857142856</ele><time>2026-04-05T08:55:35Z</time></trkpt><trkpt lat="45.83117921011156" lon="10.085438774789637"><ele>398.7142857142857</ele><time>2026-04-05T08:55:41Z</time></trkpt><trkpt lat="45.83114484747162" lon="10.085529034958464"><ele>395.8571428571429</ele><time>2026-04-05T08:55:46Z</time></trkpt><trkpt lat="45.83112181389494" lon="10.085617783540382"><ele>393.0</ele><time>2026-04-05T08:56:00.999Z</time></trkpt><trkpt lat="45.83107020582269" lon="10.085684987736318"><ele>390.8571428571429</ele><time>2026-04-05T08:56:07.999Z</time></trkpt><trkpt lat="45.831035822453316" lon="10.085764464562425"><ele>388.7142857142857</ele><time>2026-04-05T08:56:12.999Z</time></trkpt><trkpt lat="45.830992376110956" lon="10.085858620502126"><ele>386.57142857142856</ele><time>2026-04-05T08:56:17.999Z</time></trkpt><trkpt lat="45.830955742314764" lon="10.085950728469033"><ele>384.42857142857144</ele><time>2026-04-05T08:56:22.999Z</time></trkpt><trkpt lat="45.83091620091307" lon="10.086043842471133"><ele>382.2857142857143</ele><time>2026-04-05T08:56:27.999Z</time></trkpt><trkpt lat="45.83086644096656" lon="10.086105253119204"><ele>380.14285714285717</ele><time>2026-04-05T08:56:38.999Z</time></trkpt><trkpt lat="45.83081460593958" lon="10.086165989067245"><ele>378.0</ele><time>2026-04-05T08:56:43.999Z</time></trkpt><trkpt lat="45.83076032939255" lon="10.086213365274"><ele>375.85714285714283</ele><time>2026-04-05T08:56:48.998Z</time></trkpt><trkpt lat="45.83068459916281" lon="10.086222735901927"><ele>373.7142857142857</ele><time>2026-04-05T08:56:55.998Z</time></trkpt><trkpt lat="45.83061554609823" lon="10.086236760977242"><ele>371.57142857142856</ele><time>2026-04-05T08:57:00.998Z</time></trkpt><trkpt lat="45.8305596627448" lon="10.086305607262116"><ele>369.42857142857144</ele><time>2026-04-05T08:57:06.998Z</time></trkpt><trkpt lat="45.830523964781264" lon="10.086382741282042"><ele>367.2857142857143</ele><time>2026-04-05T08:57:10.998Z</time></trkpt><trkpt lat="45.83048053969035" lon="10.086466968336245"><ele>365.1428571428571</ele><time>2026-04-05T08:57:15.998Z</time></trkpt><trkpt lat="45.83043109332601" lon="10.08654027669724"><ele>363.0</ele><time>2026-04-05T08:57:20.998Z</time></trkpt><trkpt lat="45.830380363637914" lon="10.086603308200589"><ele>361.71428571428567</ele><time>2026-04-05T08:57:25.998Z</time></trkpt><trkpt lat="45.83035119995146" lon="10.086683946940317"><ele>360.42857142857144</ele><time>2026-04-05T08:57:35Z</time></trkpt><trkpt lat="45.83029756569735" lon="10.0867377500036"><ele>359.1428571428571</ele><time>2026-04-05T08:57:42Z</time></trkpt><trkpt lat="45.83023046762443" lon="10.086754122403885"><ele>357.85714285714283</ele><time>2026-04-05T08:57:47Z</time></trkpt><trkpt lat="45.830157571643525" lon="10.086762375156958"><ele>356.57142857142856</ele><time>2026-04-05T08:57:53Z</time></trkpt><trkpt lat="45.83009541093481" lon="10.086787116985171"><ele>355.2857142857143</ele><time>2026-04-05T08:57:58Z</time></trkpt><trkpt lat="45.83002350536088" lon="10.086816061675131"><ele>354.0</ele><time>2026-04-05T08:58:02Z</time></trkpt><trkpt lat="45.829968586032926" lon="10.086861971968052"><ele>353.14285714285717</ele><time>2026-04-05T08:58:06.999Z</time></trkpt><trkpt lat="45.82990735741195" lon="10.086902219768307"><ele>352.2857142857143</ele><time>2026-04-05T08:58:12.999Z</time></trkpt><trkpt lat="45.82983487040128" lon="10.086918250269242"><ele>351.42857142857144</ele><time>2026-04-05T08:58:18.999Z</time></trkpt><trkpt lat="45.82976973276686" lon="10.086906339974844"><ele>350.57142857142856</ele><time>2026-04-05T08:58:22.999Z</time></trkpt><trkpt lat="45.82969298170641" lon="10.086877906701204"><ele>349.7142857142857</ele><time>2026-04-05T08:58:27.999Z</time></trkpt><trkpt lat="45.829630714588355" lon="10.086835058689463"><ele>348.85714285714283</ele><time>2026-04-05T08:58:32.999Z</time></trkpt><trkpt lat="45.82955904624423" lon="10.08678999782522"><ele>348.0</ele><time>2026-04-05T08:58:37.999Z</time></trkpt><trkpt lat="45.82949096701879" lon="10.086739018411647"><ele>348.0</ele><time>2026-04-05T08:58:42.999Z</time></trkpt><trkpt lat="45.8294287087882" lon="10.086677987169256"><ele>348.0</ele><time>2026-04-05T08:58:47.999Z</time></trkpt><trkpt lat="45.82936656568771" lon="10.086632983529398"><ele>348.0</ele><time>2026-04-05T08:58:52.999Z</time></trkpt><trkpt lat="45.829301967191924" lon="10.086600692382229"><ele>348.0</ele><time>2026-04-05T08:58:58.998Z</time></trkpt><trkpt lat="45.829242862945534" lon="10.086560930491562"><ele>348.0</ele><time>2026-04-05T08:59:03.998Z</time></trkpt><trkpt lat="45.82918302654043" lon="10.086521117892499"><ele>348.0</ele><time>2026-04-05T08:59:08.998Z</time></trkpt><trkpt lat="45.82912100004207" lon="10.086478571016098"><ele>348.0</ele><time>2026-04-05T08:59:13.998Z</time></trkpt><trkpt lat="45.82905529780167" lon="10.086449405412692"><ele>348.57142857142856</ele><time>2026-04-05T08:59:18.998Z</time></trkpt><trkpt lat="45.8289854308495" lon="10.086416509525538"><ele>349.14285714285717</ele><time>2026-04-05T08:59:29.998Z</time></trkpt><trkpt lat="45.828928594559436" lon="10.086363338896186"><ele>349.7142857142857</ele><time>2026-04-05T08:59:36Z</time></trkpt><trkpt lat="45.82888700438749" lon="10.08628742437409"><ele>350.2857142857143</ele><time>2026-04-05T08:59:42Z</time></trkpt><trkpt lat="45.82891420562248" lon="10.086194776985646"><ele>350.85714285714283</ele><time>2026-04-05T08:59:47Z</time></trkpt><trkpt lat="45.82894005307798" lon="10.086111284616107"><ele>351.42857142857144</ele><time>2026-04-05T08:59:52Z</time></trkpt><trkpt lat="45.8289013110513" lon="10.086025891518581"><ele>352.0</ele><time>2026-04-05T08:59:57Z</time></trkpt><trkpt lat="45.82884665548862" lon="10.085980966936592"><ele>352.0</ele><time>2026-04-05T09:00:04Z</time></trkpt><trkpt lat="45.828784832081936" lon="10.08601123365664"><ele>352.0</ele><time>2026-04-05T09:00:09Z</time></trkpt></trkseg></trk></gpx>